Observation data for Fort Chadbourne on 02/15/2017      Previous  Date  Next       Current Mesonet Observations  Soil Data  Daily Summary Page  Observations in Plain Language
KCH1 150600Z 31004KT 05/01 A3016 RMK A01 T00460008  RH  077%=      5-min Rain = 0
KCH1 150601Z 32004KT 05/01 A3016 RMK A01 T00450008  RH  077%=      5-min Rain = 0
KCH1 150602Z 31004KT 05/01 A3016 RMK A01 T00450008  RH  077%=      5-min Rain = 0
KCH1 150603Z 31004KT 05/01 A3016 RMK A01 T00460009  RH  077%=      5-min Rain = 0
KCH1 150604Z 31003KT 05/01 A3016 RMK A01 T00450009  RH  077%=      5-min Rain = 0
KCH1 150605Z 32004KT 05/01 A3016 RMK A01 T00450009  RH  077%=      5-min Rain = 0
KCH1 150606Z 31005KT 05/01 A3016 RMK A01 T00460008  RH  077%=      5-min Rain = 0
KCH1 150607Z 32004KT 05/01 A3016 RMK A01 T00450008  RH  077%=      5-min Rain = 0
KCH1 150608Z 32004KT 05/01 A3016 RMK A01 T00450008  RH  077%=      5-min Rain = 0
KCH1 150609Z 32004KT 05/01 A3016 RMK A01 T00450009  RH  077%=      5-min Rain = 0
KCH1 150610Z 32004KT 05/01 A3016 RMK A01 T00450008  RH  077%=      5-min Rain = 0
KCH1 150611Z 31004KT 05/01 A3016 RMK A01 T00450009  RH  077%=      5-min Rain = 0
KCH1 150612Z 31004KT 05/01 A3016 RMK A01 T00450009  RH  077%=      5-min Rain = 0
KCH1 150613Z 32004KT 04/01 A3016 RMK A01 T00440008  RH  077%=      5-min Rain = 0
KCH1 150614Z 32003KT 04/01 A3016 RMK A01 T00440009  RH  078%=      5-min Rain = 0
KCH1 150615Z 31004KT 04/01 A3016 RMK A01 T00440008  RH  078%=      5-min Rain = 0
KCH1 150616Z 31004KT 04/01 A3016 RMK A01 T00440008  RH  077%=      5-min Rain = 0
KCH1 150617Z 31004KT 04/01 A3016 RMK A01 T00440008  RH  077%=      5-min Rain = 0
KCH1 150618Z 30004KT 04/01 A3016 RMK A01 T00440008  RH  077%=      5-min Rain = 0
KCH1 150619Z 30004KT 04/01 A3016 RMK A01 T00440008  RH  077%=      5-min Rain = 0
KCH1 150620Z 30004KT 04/01 A3016 RMK A01 T00440007  RH  077%=      5-min Rain = 0
KCH1 150621Z 30003KT 05/01 A3016 RMK A01 T00450008  RH  077%=      5-min Rain = 0
KCH1 150622Z 30004KT 05/01 A3016 RMK A01 T00450008  RH  077%=      5-min Rain = 0
KCH1 150623Z 30003KT 05/01 A3016 RMK A01 T00450008  RH  076%=      5-min Rain = 0
KCH1 150624Z 31003KT 05/01 A3017 RMK A01 T00460007  RH  076%=      5-min Rain = 0
KCH1 150625Z 31003KT 05/01 A3017 RMK A01 T00460007  RH  076%=      5-min Rain = 0
KCH1 150626Z 32002KT 05/01 A3017 RMK A01 T00460007  RH  076%=      5-min Rain = 0
KCH1 150627Z 31003KT 05/01 A3017 RMK A01 T00460008  RH  076%=      5-min Rain = 0
KCH1 150628Z 29003KT 05/01 A3017 RMK A01 T00460008  RH  077%=      5-min Rain = 0
KCH1 150629Z 28003KT 05/01 A3017 RMK A01 T00460008  RH  077%=      5-min Rain = 0
KCH1 150630Z 28004KT 05/01 A3017 RMK A01 T00460009  RH  077%=      5-min Rain = 0
KCH1 150631Z 28004KT 05/01 A3017 RMK A01 T00460009  RH  077%=      5-min Rain = 0
KCH1 150632Z 28004KT 05/01 A3017 RMK A01 T00460009  RH  077%=      5-min Rain = 0
KCH1 150633Z 29005KT 05/01 A3017 RMK A01 T00460009  RH  077%=      5-min Rain = 0
KCH1 150634Z 29004KT 05/01 A3017 RMK A01 T00470008  RH  076%=      5-min Rain = 0
KCH1 150635Z 29004KT 05/01 A3017 RMK A01 T00470009  RH  076%=      5-min Rain = 0
KCH1 150636Z 29004KT 05/01 A3017 RMK A01 T00470008  RH  076%=      5-min Rain = 0
KCH1 150637Z 28003KT 05/01 A3017 RMK A01 T00470009  RH  076%=      5-min Rain = 0
KCH1 150638Z 28002KT 05/01 A3017 RMK A01 T00470010  RH  077%=      5-min Rain = 0
KCH1 150639Z 28003KT 05/01 A3017 RMK A01 T00470010  RH  077%=      5-min Rain = 0
KCH1 150640Z 28004KT 05/01 A3017 RMK A01 T00470009  RH  077%=      5-min Rain = 0
KCH1 150641Z 27004KT 05/01 A3017 RMK A01 T00470008  RH  076%=      5-min Rain = 0
KCH1 150642Z 28004KT 05/01 A3017 RMK A01 T00470008  RH  076%=      5-min Rain = 0
KCH1 150643Z 26003KT 05/01 A3017 RMK A01 T00470008  RH  076%=      5-min Rain = 0
KCH1 150644Z 26004KT 05/01 A3017 RMK A01 T00470008  RH  076%=      5-min Rain = 0
KCH1 150645Z 26003KT 05/01 A3017 RMK A01 T00460008  RH  076%=      5-min Rain = 0
KCH1 150646Z 26003KT 05/01 A3017 RMK A01 T00460009  RH  077%=      5-min Rain = 0
KCH1 150647Z 26003KT 05/01 A3017 RMK A01 T00450009  RH  077%=      5-min Rain = 0
KCH1 150648Z 27004KT 04/01 A3017 RMK A01 T00440008  RH  078%=      5-min Rain = 0
KCH1 150649Z 28004KT 04/01 A3017 RMK A01 T00430008  RH  078%=      5-min Rain = 0
KCH1 150650Z 28004KT 04/01 A3017 RMK A01 T00430008  RH  078%=      5-min Rain = 0
KCH1 150651Z 28005KT 04/01 A3017 RMK A01 T00420008  RH  078%=      5-min Rain = 0
KCH1 150652Z 29006KT 04/01 A3017 RMK A01 T00420008  RH  078%=      5-min Rain = 0
KCH1 150653Z 29005KT 04/01 A3017 RMK A01 T00420007  RH  078%=      5-min Rain = 0
KCH1 150654Z 29005KT 04/01 A3017 RMK A01 T00430007  RH  078%=      5-min Rain = 0
KCH1 150655Z 29005KT 04/01 A3017 RMK A01 T00420007  RH  078%=      5-min Rain = 0
KCH1 150656Z 29006KT 04/01 A3017 RMK A01 T00420007  RH  078%=      5-min Rain = 0
KCH1 150657Z 28005KT 04/01 A3017 RMK A01 T00420007  RH  078%=      5-min Rain = 0
KCH1 150658Z 28005KT 04/01 A3017 RMK A01 T00420008  RH  079%=      5-min Rain = 0
KCH1 150659Z 27005KT 04/01 A3017 RMK A01 T00420008  RH  079%=      5-min Rain = 0
KCH1 150700Z 28005KT 04/01 A3017 RMK A01 T00410008  RH  079%=      5-min Rain = 0
KCH1 150701Z 28004KT 04/01 A3017 RMK A01 T00410009  RH  079%=      5-min Rain = 0
KCH1 150702Z 28004KT 04/01 A3017 RMK A01 T00410009  RH  080%=      5-min Rain = 0
KCH1 150703Z 28004KT 04/01 A3017 RMK A01 T00410009  RH  080%=      5-min Rain = 0
KCH1 150704Z 29005KT 04/01 A3017 RMK A01 T00400009  RH  080%=      5-min Rain = 0
KCH1 150705Z 29006KT 04/01 A3017 RMK A01 T00400009  RH  080%=      5-min Rain = 0
KCH1 150706Z 29005KT 04/01 A3017 RMK A01 T00400009  RH  080%=      5-min Rain = 0
KCH1 150707Z 30004KT 04/01 A3017 RMK A01 T00400010  RH  080%=      5-min Rain = 0
KCH1 150708Z 29004KT 04/01 A3017 RMK A01 T00410010  RH  080%=      5-min Rain = 0
KCH1 150709Z 29005KT 04/01 A3017 RMK A01 T00400009  RH  081%=      5-min Rain = 0
KCH1 150710Z 29005KT 04/01 A3017 RMK A01 T00400010  RH  081%=      5-min Rain = 0
KCH1 150711Z 30005KT 04/01 A3017 RMK A01 T00400009  RH  081%=      5-min Rain = 0
KCH1 150712Z 29005KT 04/01 A3017 RMK A01 T00400010  RH  081%=      5-min Rain = 0
KCH1 150713Z 29004KT 04/01 A3017 RMK A01 T00400010  RH  081%=      5-min Rain = 0
KCH1 150714Z 29004KT 04/01 A3017 RMK A01 T00400010  RH  081%=      5-min Rain = 0
KCH1 150715Z 28005KT 04/01 A3017 RMK A01 T00400010  RH  081%=      5-min Rain = 0
KCH1 150716Z 29004KT 04/01 A3017 RMK A01 T00400010  RH  081%=      5-min Rain = 0
KCH1 150717Z 28004KT 04/01 A3017 RMK A01 T00400011  RH  081%=      5-min Rain = 0
KCH1 150718Z 28003KT 04/01 A3017 RMK A01 T00400011  RH  081%=      5-min Rain = 0
KCH1 150719Z 28003KT 04/01 A3017 RMK A01 T00390011  RH  082%=      5-min Rain = 0
KCH1 150720Z 28003KT 04/01 A3017 RMK A01 T00390011  RH  082%=      5-min Rain = 0
KCH1 150721Z 29003KT 04/01 A3017 RMK A01 T00390011  RH  082%=      5-min Rain = 0
KCH1 150722Z 28004KT 04/01 A3017 RMK A01 T00380011  RH  082%=      5-min Rain = 0
KCH1 150723Z 29004KT 04/01 A3017 RMK A01 T00380011  RH  083%=      5-min Rain = 0
KCH1 150724Z 29004KT 04/01 A3017 RMK A01 T00380011  RH  083%=      5-min Rain = 0
KCH1 150725Z 29004KT 04/01 A3017 RMK A01 T00370011  RH  083%=      5-min Rain = 0
KCH1 150726Z 28004KT 04/01 A3017 RMK A01 T00370011  RH  083%=      5-min Rain = 0
KCH1 150727Z 28005KT 04/01 A3017 RMK A01 T00370011  RH  083%=      5-min Rain = 0
KCH1 150728Z 29004KT 04/01 A3017 RMK A01 T00370012  RH  084%=      5-min Rain = 0
KCH1 150729Z 29004KT 04/01 A3017 RMK A01 T00370012  RH  084%=      5-min Rain = 0
KCH1 150730Z 29004KT 04/01 A3017 RMK A01 T00360011  RH  084%=      5-min Rain = 0
KCH1 150731Z 29004KT 04/01 A3017 RMK A01 T00360011  RH  084%=      5-min Rain = 0
KCH1 150732Z 29004KT 04/01 A3017 RMK A01 T00360011  RH  084%=      5-min Rain = 0
KCH1 150733Z 29005KT 04/01 A3017 RMK A01 T00360011  RH  084%=      5-min Rain = 0
KCH1 150734Z 29005KT 04/01 A3017 RMK A01 T00360012  RH  084%=      5-min Rain = 0
KCH1 150735Z 30004KT 04/01 A3017 RMK A01 T00360012  RH  084%=      5-min Rain = 0
KCH1 150736Z 29005KT 04/01 A3017 RMK A01 T00360012  RH  084%=      5-min Rain = 0
KCH1 150737Z 29005KT 04/01 A3017 RMK A01 T00350011  RH  084%=      5-min Rain = 0
KCH1 150738Z 29005KT 04/01 A3018 RMK A01 T00350012  RH  085%=      5-min Rain = 0
KCH1 150739Z 30005KT 04/01 A3018 RMK A01 T00350012  RH  085%=      5-min Rain = 0
KCH1 150740Z 29006KT 04/01 A3018 RMK A01 T00350012  RH  085%=      5-min Rain = 0
KCH1 150741Z 29005KT 04/01 A3018 RMK A01 T00350012  RH  085%=      5-min Rain = 0
KCH1 150742Z 30007KT 03/01 A3018 RMK A01 T00340012  RH  085%=      5-min Rain = 0
KCH1 150743Z 29006KT 04/01 A3018 RMK A01 T00350013  RH  085%=      5-min Rain = 0
KCH1 150744Z 29005KT 04/01 A3018 RMK A01 T00350013  RH  085%=      5-min Rain = 0
KCH1 150745Z 30007KT 04/01 A3018 RMK A01 T00360013  RH  085%=      5-min Rain = 0
KCH1 150746Z 30006KT 04/01 A3018 RMK A01 T00360013  RH  085%=      5-min Rain = 0
KCH1 150747Z 30006KT 04/01 A3018 RMK A01 T00370013  RH  084%=      5-min Rain = 0
KCH1 150748Z 30008KT 04/01 A3018 RMK A01 T00370014  RH  085%=      5-min Rain = 0
KCH1 150749Z 30007KT 04/01 A3018 RMK A01 T00380014  RH  084%=      5-min Rain = 0
KCH1 150750Z 30006KT 04/01 A3018 RMK A01 T00380014  RH  084%=      5-min Rain = 0
KCH1 150751Z 30008KT 04/01 A3018 RMK A01 T00390014  RH  084%=      5-min Rain = 0
KCH1 150752Z 30007KT 04/01 A3018 RMK A01 T00390014  RH  084%=      5-min Rain = 0
KCH1 150753Z 30007KT 04/01 A3018 RMK A01 T00390013  RH  083%=      5-min Rain = 0
KCH1 150754Z 31006KT 04/01 A3018 RMK A01 T00390013  RH  084%=      5-min Rain = 0
KCH1 150755Z 30007KT 04/01 A3018 RMK A01 T00390014  RH  084%=      5-min Rain = 0
KCH1 150756Z 30009KT 04/01 A3018 RMK A01 T00390014  RH  083%=      5-min Rain = 0
KCH1 150757Z 30008KT 04/01 A3018 RMK A01 T00400013  RH  083%=      5-min Rain = 0
KCH1 150758Z 31008KT 04/01 A3018 RMK A01 T00400013  RH  083%=      5-min Rain = 0
KCH1 150759Z 31006KT 04/01 A3018 RMK A01 T00400013  RH  083%=      5-min Rain = 0
KCH1 150800Z 31007KT 04/01 A3018 RMK A01 T00400014  RH  083%=      5-min Rain = 0
KCH1 150801Z 31007KT 04/01 A3018 RMK A01 T00400014  RH  083%=      5-min Rain = 0
KCH1 150802Z 31007KT 04/01 A3018 RMK A01 T00400014  RH  083%=      5-min Rain = 0
KCH1 150803Z 31008KT 04/01 A3018 RMK A01 T00400014  RH  083%=      5-min Rain = 0
KCH1 150804Z 31006KT 04/01 A3018 RMK A01 T00400013  RH  083%=      5-min Rain = 0
KCH1 150805Z 30007KT 04/01 A3018 RMK A01 T00400013  RH  083%=      5-min Rain = 0
KCH1 150806Z 31008KT 04/01 A3018 RMK A01 T00400013  RH  082%=      5-min Rain = 0
KCH1 150807Z 32007KT 04/01 A3018 RMK A01 T00400013  RH  082%=      5-min Rain = 0
KCH1 150808Z 32007KT 04/01 A3018 RMK A01 T00400013  RH  083%=      5-min Rain = 0
KCH1 150809Z 32007KT 04/01 A3018 RMK A01 T00400014  RH  083%=      5-min Rain = 0
KCH1 150810Z 32006KT 04/01 A3018 RMK A01 T00400014  RH  083%=      5-min Rain = 0
KCH1 150811Z 32006KT 04/01 A3018 RMK A01 T00390014  RH  083%=      5-min Rain = 0
KCH1 150812Z 31006KT 04/01 A3018 RMK A01 T00390013  RH  084%=      5-min Rain = 0
KCH1 150813Z 32005KT 04/01 A3018 RMK A01 T00380013  RH  084%=      5-min Rain = 0
KCH1 150814Z 32005KT 04/01 A3018 RMK A01 T00380013  RH  084%=      5-min Rain = 0
KCH1 150815Z 32005KT 04/01 A3018 RMK A01 T00370013  RH  084%=      5-min Rain = 0
KCH1 150816Z 32007KT 04/01 A3018 RMK A01 T00370012  RH  084%=      5-min Rain = 0
KCH1 150817Z 32008KT 04/01 A3018 RMK A01 T00360012  RH  084%=      5-min Rain = 0
KCH1 150818Z 32005KT 04/01 A3018 RMK A01 T00360012  RH  084%=      5-min Rain = 0
KCH1 150819Z 33005KT 04/01 A3018 RMK A01 T00360012  RH  084%=      5-min Rain = 0
KCH1 150820Z 32006KT 04/01 A3018 RMK A01 T00350011  RH  085%=      5-min Rain = 0
KCH1 150821Z 32005KT 04/01 A3018 RMK A01 T00350011  RH  085%=      5-min Rain = 0
KCH1 150822Z 33005KT 03/01 A3018 RMK A01 T00340012  RH  085%=      5-min Rain = 0
KCH1 150823Z 32005KT 03/01 A3018 RMK A01 T00340012  RH  085%=      5-min Rain = 0
KCH1 150824Z 32006KT 03/01 A3018 RMK A01 T00330012  RH  086%=      5-min Rain = 0
KCH1 150825Z 32005KT 03/01 A3018 RMK A01 T00330012  RH  086%=      5-min Rain = 0
KCH1 150826Z 32005KT 03/01 A3018 RMK A01 T00320011  RH  086%=      5-min Rain = 0
KCH1 150827Z 32005KT 03/01 A3018 RMK A01 T00320012  RH  086%=      5-min Rain = 0
KCH1 150828Z 32006KT 03/01 A3018 RMK A01 T00320012  RH  087%=      5-min Rain = 0
KCH1 150829Z 31006KT 03/01 A3018 RMK A01 T00320012  RH  087%=      5-min Rain = 0
KCH1 150830Z 32005KT 03/01 A3018 RMK A01 T00320011  RH  087%=      5-min Rain = 0
KCH1 150831Z 32005KT 03/01 A3018 RMK A01 T00310011  RH  087%=      5-min Rain = 0
KCH1 150832Z 32005KT 03/01 A3018 RMK A01 T00310011  RH  087%=      5-min Rain = 0
KCH1 150833Z 32006KT 03/01 A3018 RMK A01 T00310012  RH  087%=      5-min Rain = 0
KCH1 150834Z 32006KT 03/01 A3018 RMK A01 T00310012  RH  087%=      5-min Rain = 0
KCH1 150835Z 32006KT 03/01 A3018 RMK A01 T00310012  RH  087%=      5-min Rain = 0
KCH1 150836Z 31005KT 03/01 A3018 RMK A01 T00310012  RH  087%=      5-min Rain = 0
KCH1 150837Z 31004KT 03/01 A3018 RMK A01 T00310012  RH  087%=      5-min Rain = 0
KCH1 150838Z 31005KT 03/01 A3018 RMK A01 T00310012  RH  088%=      5-min Rain = 0
KCH1 150839Z 31005KT 03/01 A3018 RMK A01 T00310012  RH  087%=      5-min Rain = 0
KCH1 150840Z 31004KT 03/01 A3018 RMK A01 T00310012  RH  087%=      5-min Rain = 0
KCH1 150841Z 31005KT 03/01 A3018 RMK A01 T00310012  RH  088%=      5-min Rain = 0
KCH1 150842Z 30006KT 03/01 A3018 RMK A01 T00310012  RH  088%=      5-min Rain = 0
KCH1 150843Z 30005KT 03/01 A3018 RMK A01 T00310013  RH  088%=      5-min Rain = 0
KCH1 150844Z 30006KT 03/01 A3018 RMK A01 T00310013  RH  088%=      5-min Rain = 0
KCH1 150845Z 31005KT 03/01 A3018 RMK A01 T00320014  RH  088%=      5-min Rain = 0
KCH1 150846Z 31005KT 03/01 A3018 RMK A01 T00330013  RH  087%=      5-min Rain = 0
KCH1 150847Z 31005KT 03/01 A3018 RMK A01 T00330013  RH  087%=      5-min Rain = 0
KCH1 150848Z 31006KT 03/01 A3018 RMK A01 T00330013  RH  087%=      5-min Rain = 0
KCH1 150849Z 31006KT 03/01 A3018 RMK A01 T00330013  RH  087%=      5-min Rain = 0
KCH1 150850Z 31006KT 03/01 A3018 RMK A01 T00320013  RH  087%=      5-min Rain = 0
KCH1 150851Z 32005KT 03/01 A3018 RMK A01 T00330013  RH  087%=      5-min Rain = 0
KCH1 150852Z 31005KT 03/01 A3018 RMK A01 T00320013  RH  087%=      5-min Rain = 0
KCH1 150853Z 32006KT 03/01 A3018 RMK A01 T00320012  RH  087%=      5-min Rain = 0
KCH1 150854Z 31008KT 03/01 A3018 RMK A01 T00320013  RH  087%=      5-min Rain = 0
KCH1 150855Z 31006KT 03/01 A3018 RMK A01 T00330013  RH  087%=      5-min Rain = 0
KCH1 150856Z 31004KT 03/01 A3018 RMK A01 T00330013  RH  086%=      5-min Rain = 0
KCH1 150857Z 31004KT 03/01 A3018 RMK A01 T00330012  RH  086%=      5-min Rain = 0
KCH1 150858Z 30005KT 03/01 A3018 RMK A01 T00320012  RH  086%=      5-min Rain = 0
KCH1 150859Z 30005KT 03/01 A3018 RMK A01 T00320012  RH  087%=      5-min Rain = 0
KCH1 150900Z 31004KT 03/01 A3018 RMK A01 T00320013  RH  087%=      5-min Rain = 0
KCH1 150901Z 31004KT 03/01 A3018 RMK A01 T00320013  RH  087%=      5-min Rain = 0
KCH1 150902Z 31004KT 03/01 A3018 RMK A01 T00320013  RH  088%=      5-min Rain = 0
KCH1 150903Z 30004KT 03/01 A3018 RMK A01 T00310012  RH  087%=      5-min Rain = 0
KCH1 150904Z 30003KT 03/01 A3018 RMK A01 T00300012  RH  088%=      5-min Rain = 0
KCH1 150905Z 31003KT 03/01 A3018 RMK A01 T00300012  RH  088%=      5-min Rain = 0
KCH1 150906Z 31004KT 03/01 A3018 RMK A01 T00300012  RH  088%=      5-min Rain = 0
KCH1 150907Z 30004KT 03/01 A3018 RMK A01 T00290011  RH  088%=      5-min Rain = 0
KCH1 150908Z 31005KT 03/01 A3018 RMK A01 T00290011  RH  088%=      5-min Rain = 0
KCH1 150909Z 31004KT 03/01 A3018 RMK A01 T00280010  RH  088%=      5-min Rain = 0
KCH1 150910Z 31004KT 03/01 A3018 RMK A01 T00280010  RH  088%=      5-min Rain = 0
KCH1 150911Z 32004KT 03/01 A3018 RMK A01 T00270010  RH  088%=      5-min Rain = 0
KCH1 150912Z 32005KT 03/01 A3018 RMK A01 T00260009  RH  089%=      5-min Rain = 0
KCH1 150913Z 31005KT 03/01 A3018 RMK A01 T00260009  RH  089%=      5-min Rain = 0
KCH1 150914Z 31006KT 03/01 A3018 RMK A01 T00250008  RH  089%=      5-min Rain = 0
KCH1 150915Z 31005KT 03/01 A3018 RMK A01 T00250008  RH  089%=      5-min Rain = 0
KCH1 150916Z 31006KT 03/01 A3017 RMK A01 T00250008  RH  089%=      5-min Rain = 0
KCH1 150917Z 31006KT 02/01 A3017 RMK A01 T00240008  RH  089%=      5-min Rain = 0
KCH1 150918Z 32005KT 02/01 A3017 RMK A01 T00240008  RH  089%=      5-min Rain = 0
KCH1 150919Z 32006KT 02/01 A3017 RMK A01 T00240008  RH  089%=      5-min Rain = 0
KCH1 150920Z 31006KT 02/01 A3017 RMK A01 T00240008  RH  089%=      5-min Rain = 0
KCH1 150921Z 31005KT 02/01 A3017 RMK A01 T00240008  RH  090%=      5-min Rain = 0
KCH1 150922Z 32006KT 02/01 A3017 RMK A01 T00240008  RH  090%=      5-min Rain = 0
KCH1 150923Z 32006KT 02/01 A3017 RMK A01 T00230008  RH  090%=      5-min Rain = 0
KCH1 150924Z 32006KT 02/01 A3017 RMK A01 T00230008  RH  090%=      5-min Rain = 0
KCH1 150925Z 32006KT 02/01 A3017 RMK A01 T00230008  RH  090%=      5-min Rain = 0
KCH1 150926Z 32006KT 02/01 A3017 RMK A01 T00230008  RH  090%=      5-min Rain = 0
KCH1 150927Z 32007KT 02/01 A3017 RMK A01 T00230008  RH  090%=      5-min Rain = 0
KCH1 150928Z 32006KT 02/01 A3017 RMK A01 T00230008  RH  090%=      5-min Rain = 0
KCH1 150929Z 32006KT 02/01 A3017 RMK A01 T00230008  RH  090%=      5-min Rain = 0
KCH1 150930Z 32006KT 02/01 A3017 RMK A01 T00220007  RH  090%=      5-min Rain = 0
KCH1 150931Z 32006KT 02/01 A3017 RMK A01 T00220008  RH  090%=      5-min Rain = 0
KCH1 150932Z 32007KT 02/01 A3017 RMK A01 T00220007  RH  090%=      5-min Rain = 0
KCH1 150933Z 32006KT 02/01 A3017 RMK A01 T00220007  RH  090%=      5-min Rain = 0
KCH1 150934Z 32006KT 02/01 A3017 RMK A01 T00220007  RH  090%=      5-min Rain = 0
KCH1 150935Z 32005KT 02/01 A3017 RMK A01 T00220007  RH  090%=      5-min Rain = 0
KCH1 150936Z 32006KT 02/01 A3017 RMK A01 T00220007  RH  090%=      5-min Rain = 0
KCH1 150937Z 32007KT 02/01 A3017 RMK A01 T00220007  RH  090%=      5-min Rain = 0
KCH1 150938Z 32005KT 02/01 A3017 RMK A01 T00220007  RH  090%=      5-min Rain = 0
KCH1 150939Z 32007KT 02/01 A3017 RMK A01 T00220006  RH  090%=      5-min Rain = 0
KCH1 150940Z 32006KT 02/01 A3017 RMK A01 T00220006  RH  090%=      5-min Rain = 0
KCH1 150941Z 32006KT 02/01 A3017 RMK A01 T00210006  RH  090%=      5-min Rain = 0
KCH1 150942Z 33006KT 02/01 A3017 RMK A01 T00210006  RH  090%=      5-min Rain = 0
KCH1 150943Z 33005KT 02/01 A3017 RMK A01 T00200005  RH  090%=      5-min Rain = 0
KCH1 150944Z 32005KT 02/01 A3017 RMK A01 T00200005  RH  090%=      5-min Rain = 0
KCH1 150945Z 33005KT 02/01 A3017 RMK A01 T00200005  RH  090%=      5-min Rain = 0
KCH1 150946Z 32006KT 02/01 A3017 RMK A01 T00200005  RH  090%=      5-min Rain = 0
KCH1 150947Z 32006KT 02/01 A3017 RMK A01 T00190005  RH  090%=      5-min Rain = 0
KCH1 150948Z 32006KT 02/01 A3017 RMK A01 T00190005  RH  090%=      5-min Rain = 0
KCH1 150949Z 33005KT 02/01 A3017 RMK A01 T00190005  RH  090%=      5-min Rain = 0
KCH1 150950Z 32006KT 02/01 A3017 RMK A01 T00190005  RH  090%=      5-min Rain = 0
KCH1 150951Z 33006KT 02/01 A3017 RMK A01 T00190005  RH  090%=      5-min Rain = 0
KCH1 150952Z 32005KT 02/01 A3017 RMK A01 T00190005  RH  090%=      5-min Rain = 0
KCH1 150953Z 32006KT 02/01 A3017 RMK A01 T00190005  RH  090%=      5-min Rain = 0
KCH1 150954Z 32006KT 02/00 A3017 RMK A01 T00180004  RH  091%=      5-min Rain = 0
KCH1 150955Z 32006KT 02/00 A3017 RMK A01 T00180004  RH  091%=      5-min Rain = 0
KCH1 150956Z 32006KT 02/00 A3017 RMK A01 T00180004  RH  091%=      5-min Rain = 0
KCH1 150957Z 32007KT 02/01 A3017 RMK A01 T00180005  RH  091%=      5-min Rain = 0
KCH1 150958Z 32005KT 02/00 A3017 RMK A01 T00180004  RH  091%=      5-min Rain = 0
KCH1 150959Z 32006KT 02/00 A3018 RMK A01 T00180004  RH  091%=      5-min Rain = 0
KCH1 151000Z 31006KT 02/00 A3018 RMK A01 T00180004  RH  091%=      5-min Rain = 0
KCH1 151001Z 31006KT 02/01 A3018 RMK A01 T00180005  RH  091%=      5-min Rain = 0
KCH1 151002Z 31006KT 02/01 A3018 RMK A01 T00180005  RH  091%=      5-min Rain = 0
KCH1 151003Z 32006KT 02/00 A3017 RMK A01 T00180004  RH  091%=      5-min Rain = 0
KCH1 151004Z 32006KT 02/00 A3017 RMK A01 T00180004  RH  091%=      5-min Rain = 0
KCH1 151005Z 32007KT 02/00 A3017 RMK A01 T00180004  RH  091%=      5-min Rain = 0
KCH1 151006Z 32006KT 02/00 A3017 RMK A01 T00180004  RH  091%=      5-min Rain = 0
KCH1 151007Z 32006KT 02/01 A3017 RMK A01 T00180005  RH  091%=      5-min Rain = 0
KCH1 151008Z 32007KT 02/01 A3017 RMK A01 T00180005  RH  091%=      5-min Rain = 0
KCH1 151009Z 32006KT 02/01 A3017 RMK A01 T00180005  RH  091%=      5-min Rain = 0
KCH1 151010Z 32006KT 02/01 A3017 RMK A01 T00180005  RH  091%=      5-min Rain = 0
KCH1 151011Z 32007KT 02/01 A3017 RMK A01 T00180005  RH  091%=      5-min Rain = 0
KCH1 151012Z 32006KT 02/01 A3017 RMK A01 T00180005  RH  091%=      5-min Rain = 0
KCH1 151013Z 32007KT 02/00 A3017 RMK A01 T00180004  RH  091%=      5-min Rain = 0
KCH1 151014Z 32008KT 02/00 A3017 RMK A01 T00180004  RH  091%=      5-min Rain = 0
KCH1 151015Z 32006KT 02/00 A3017 RMK A01 T00180004  RH  091%=      5-min Rain = 0
KCH1 151016Z 32008KT 02/00 A3017 RMK A01 T00180004  RH  091%=      5-min Rain = 0
KCH1 151017Z 32008KT 02/00 A3017 RMK A01 T00180004  RH  091%=      5-min Rain = 0
KCH1 151018Z 32007KT 02/00 A3017 RMK A01 T00180004  RH  090%=      5-min Rain = 0
KCH1 151019Z 32007KT 02/00 A3017 RMK A01 T00180004  RH  090%=      5-min Rain = 0
KCH1 151020Z 32007KT 02/00 A3017 RMK A01 T00180004  RH  090%=      5-min Rain = 0
KCH1 151021Z 32008KT 02/00 A3017 RMK A01 T00180003  RH  090%=      5-min Rain = 0
KCH1 151022Z 32007KT 02/00 A3017 RMK A01 T00180003  RH  090%=      5-min Rain = 0
KCH1 151023Z 33007KT 02/00 A3017 RMK A01 T00180003  RH  090%=      5-min Rain = 0
KCH1 151024Z 32008KT 02/00 A3017 RMK A01 T00180003  RH  090%=      5-min Rain = 0
KCH1 151025Z 32008KT 02/00 A3017 RMK A01 T00180003  RH  090%=      5-min Rain = 0
KCH1 151026Z 32008KT 02/00 A3017 RMK A01 T00180003  RH  090%=      5-min Rain = 0
KCH1 151027Z 32007KT 02/00 A3017 RMK A01 T00180003  RH  090%=      5-min Rain = 0
KCH1 151028Z 32007KT 02/00 A3017 RMK A01 T00180003  RH  090%=      5-min Rain = 0
KCH1 151029Z 32008KT 02/00 A3017 RMK A01 T00180002  RH  090%=      5-min Rain = 0
KCH1 151030Z 32008KT 02/00 A3017 RMK A01 T00180002  RH  090%=      5-min Rain = 0
KCH1 151031Z 32007KT 02/00 A3017 RMK A01 T00180003  RH  090%=      5-min Rain = 0
KCH1 151032Z 32008KT 02/00 A3017 RMK A01 T00180002  RH  090%=      5-min Rain = 0
KCH1 151033Z 32008KT 02/00 A3017 RMK A01 T00170002  RH  090%=      5-min Rain = 0
KCH1 151034Z 32007KT 02/00 A3017 RMK A01 T00180003  RH  090%=      5-min Rain = 0
KCH1 151035Z 32008KT 02/00 A3017 RMK A01 T00180002  RH  090%=      5-min Rain = 0
KCH1 151036Z 32009KT 02/00 A3017 RMK A01 T00180002  RH  090%=      5-min Rain = 0
KCH1 151037Z 32007KT 02/00 A3017 RMK A01 T00180002  RH  089%=      5-min Rain = 0
KCH1 151038Z 32008KT 02/00 A3017 RMK A01 T00180002  RH  089%=      5-min Rain = 0
KCH1 151039Z 32008KT 02/00 A3017 RMK A01 T00180002  RH  089%=      5-min Rain = 0
KCH1 151040Z 32007KT 02/00 A3017 RMK A01 T00180002  RH  089%=      5-min Rain = 0
KCH1 151041Z 32008KT 02/00 A3017 RMK A01 T00180002  RH  089%=      5-min Rain = 0
KCH1 151042Z 32007KT 02/00 A3017 RMK A01 T00180002  RH  089%=      5-min Rain = 0
KCH1 151043Z 32007KT 02/00 A3017 RMK A01 T00180002  RH  089%=      5-min Rain = 0
KCH1 151044Z 32008KT 02/00 A3017 RMK A01 T00170002  RH  089%=      5-min Rain = 0
KCH1 151045Z 32008KT 02/00 A3017 RMK A01 T00170002  RH  090%=      5-min Rain = 0
KCH1 151046Z 32007KT 02/00 A3017 RMK A01 T00170002  RH  090%=      5-min Rain = 0
KCH1 151047Z 32007KT 02/00 A3017 RMK A01 T00170002  RH  089%=      5-min Rain = 0
KCH1 151048Z 32006KT 02/00 A3017 RMK A01 T00170001  RH  089%=      5-min Rain = 0
KCH1 151049Z 32008KT 02/00 A3017 RMK A01 T00180002  RH  089%=      5-min Rain = 0
KCH1 151050Z 32006KT 02/00 A3017 RMK A01 T00170001  RH  089%=      5-min Rain = 0
KCH1 151051Z 32006KT 02/00 A3017 RMK A01 T00170001  RH  089%=      5-min Rain = 0
KCH1 151052Z 32008KT 02/00 A3017 RMK A01 T00170001  RH  090%=      5-min Rain = 0
KCH1 151053Z 32008KT 02/00 A3017 RMK A01 T00170002  RH  090%=      5-min Rain = 0
KCH1 151054Z 32006KT 02/00 A3017 RMK A01 T00170001  RH  090%=      5-min Rain = 0
KCH1 151055Z 32007KT 02/00 A3017 RMK A01 T00160001  RH  090%=      5-min Rain = 0
KCH1 151056Z 32007KT 02/00 A3017 RMK A01 T00160001  RH  090%=      5-min Rain = 0
KCH1 151057Z 32007KT 02/00 A3017 RMK A01 T00160001  RH  090%=      5-min Rain = 0
KCH1 151058Z 32007KT 02/00 A3017 RMK A01 T00160001  RH  090%=      5-min Rain = 0
KCH1 151059Z 32007KT 02/00 A3017 RMK A01 T00160001  RH  090%=      5-min Rain = 0
KCH1 151100Z 32007KT 02/00 A3017 RMK A01 T00160001  RH  090%=      5-min Rain = 0
KCH1 151101Z 32007KT 02/00 A3017 RMK A01 T00160001  RH  090%=      5-min Rain = 0
KCH1 151102Z 32007KT 02/00 A3017 RMK A01 T00160001  RH  090%=      5-min Rain = 0
KCH1 151103Z 32007KT 02/00 A3017 RMK A01 T00160001  RH  090%=      5-min Rain = 0
KCH1 151104Z 32008KT 02/00 A3017 RMK A01 T00160001  RH  090%=      5-min Rain = 0
KCH1 151105Z 32007KT 02/00 A3017 RMK A01 T00160001  RH  090%=      5-min Rain = 0
KCH1 151106Z 32008KT 02/00 A3017 RMK A01 T00160001  RH  090%=      5-min Rain = 0
KCH1 151107Z 32007KT 02/00 A3017 RMK A01 T00160000  RH  089%=      5-min Rain = 0
KCH1 151108Z 32007KT 02/00 A3017 RMK A01 T00170001  RH  090%=      5-min Rain = 0
KCH1 151109Z 32007KT 02/00 A3017 RMK A01 T00160001  RH  089%=      5-min Rain = 0
KCH1 151110Z 32007KT 02/00 A3017 RMK A01 T00160000  RH  089%=      5-min Rain = 0
KCH1 151111Z 32007KT 02/00 A3017 RMK A01 T00160000  RH  089%=      5-min Rain = 0
KCH1 151112Z 33007KT 02/00 A3017 RMK A01 T00160000  RH  090%=      5-min Rain = 0
KCH1 151113Z 32006KT 02/00 A3017 RMK A01 T00150000  RH  090%=      5-min Rain = 0
KCH1 151114Z 32007KT 02/00 A3017 RMK A01 T00150000  RH  090%=      5-min Rain = 0
KCH1 151115Z 32008KT 02/00 A3017 RMK A01 T00150000  RH  090%=      5-min Rain = 0
KCH1 151116Z 32008KT 02/00 A3017 RMK A01 T00150000  RH  090%=      5-min Rain = 0
KCH1 151117Z 31007KT 02/00 A3017 RMK A01 T00160000  RH  090%=      5-min Rain = 0
KCH1 151118Z 32007KT 02/00 A3017 RMK A01 T00150000  RH  090%=      5-min Rain = 0
KCH1 151119Z 32008KT 02/00 A3017 RMK A01 T00160000  RH  090%=      5-min Rain = 0
KCH1 151120Z 32007KT 02/00 A3017 RMK A01 T00160000  RH  090%=      5-min Rain = 0
KCH1 151121Z 31007KT 02/00 A3017 RMK A01 T00150000  RH  090%=      5-min Rain = 0
KCH1 151122Z 32007KT 02/00 A3017 RMK A01 T00150000  RH  090%=      5-min Rain = 0
KCH1 151123Z 32007KT 02/00 A3018 RMK A01 T00150000  RH  090%=      5-min Rain = 0
KCH1 151124Z 32008KT 02/00 A3018 RMK A01 T00150001  RH  090%=      5-min Rain = 0
KCH1 151125Z 32008KT 02/00 A3017 RMK A01 T001500-0  RH  090%=      5-min Rain = 0
KCH1 151126Z 32008KT 02/00 A3017 RMK A01 T00150000  RH  090%=      5-min Rain = 0
KCH1 151127Z 32007KT 02/00 A3017 RMK A01 T00150000  RH  090%=      5-min Rain = 0
KCH1 151128Z 32007KT 02/00 A3017 RMK A01 T00150000  RH  090%=      5-min Rain = 0
KCH1 151129Z 32008KT 02/00 A3017 RMK A01 T00150000  RH  090%=      5-min Rain = 0
KCH1 151130Z 32008KT 02/00 A3017 RMK A01 T00150000  RH  090%=      5-min Rain = 0
KCH1 151131Z 32008KT 02/00 A3017 RMK A01 T00150000  RH  090%=      5-min Rain = 0
KCH1 151132Z 32007KT 02/00 A3017 RMK A01 T00150000  RH  090%=      5-min Rain = 0
KCH1 151133Z 32007KT 02/00 A3017 RMK A01 T001500-0  RH  090%=      5-min Rain = 0
KCH1 151134Z 31007KT 02/00 A3017 RMK A01 T001500-0  RH  090%=      5-min Rain = 0
KCH1 151135Z 32008KT 02/00 A3018 RMK A01 T00150000  RH  090%=      5-min Rain = 0
KCH1 151136Z 32007KT 02/00 A3018 RMK A01 T00150000  RH  090%=      5-min Rain = 0
KCH1 151137Z 32008KT 02/00 A3018 RMK A01 T00150000  RH  090%=      5-min Rain = 0
KCH1 151138Z 32007KT 02/00 A3018 RMK A01 T00150000  RH  090%=      5-min Rain = 0
KCH1 151139Z 32008KT 02/00 A3018 RMK A01 T00150001  RH  090%=      5-min Rain = 0
KCH1 151140Z 32008KT 02/00 A3018 RMK A01 T00150001  RH  090%=      5-min Rain = 0
KCH1 151141Z 32008KT 02/00 A3018 RMK A01 T00160001  RH  090%=      5-min Rain = 0
KCH1 151142Z 32007KT 02/00 A3018 RMK A01 T00160000  RH  090%=      5-min Rain = 0
KCH1 151143Z 32008KT 02/00 A3018 RMK A01 T00160000  RH  090%=      5-min Rain = 0
KCH1 151144Z 32007KT 02/00 A3018 RMK A01 T00160001  RH  090%=      5-min Rain = 0
KCH1 151145Z 32007KT 02/00 A3018 RMK A01 T00160001  RH  090%=      5-min Rain = 0
KCH1 151146Z 32008KT 02/00 A3018 RMK A01 T00150000  RH  090%=      5-min Rain = 0
KCH1 151147Z 32008KT 02/00 A3018 RMK A01 T00150000  RH  090%=      5-min Rain = 0
KCH1 151148Z 32008KT 02/00 A3018 RMK A01 T001500-0  RH  090%=      5-min Rain = 0
KCH1 151149Z 32008KT 02/00 A3018 RMK A01 T00150000  RH  090%=      5-min Rain = 0
KCH1 151150Z 32008KT 02/00 A3018 RMK A01 T001500-0  RH  090%=      5-min Rain = 0
KCH1 151151Z 32008KT 02/00 A3018 RMK A01 T00150000  RH  090%=      5-min Rain = 0
KCH1 151152Z 32009KT 02/00 A3018 RMK A01 T001500-0  RH  090%=      5-min Rain = 0
KCH1 151153Z 32007KT 02/00 A3018 RMK A01 T001500-0  RH  090%=      5-min Rain = 0
KCH1 151154Z 32007KT 02/M00 A3018 RMK A01 T00151001  RH  090%=      5-min Rain = 0
KCH1 151155Z 32008KT 01/M00 A3018 RMK A01 T00141001  RH  090%=      5-min Rain = 0
KCH1 151156Z 32008KT 01/M00 A3018 RMK A01 T00141001  RH  090%=      5-min Rain = 0
KCH1 151157Z 32008KT 01/M00 A3018 RMK A01 T00141001  RH  090%=      5-min Rain = 0
KCH1 151158Z 32008KT 01/M00 A3018 RMK A01 T00141001  RH  090%=      5-min Rain = 0
KCH1 151159Z 32009KT 01/M00 A3018 RMK A01 T00131001  RH  090%=      5-min Rain = 0
KCH1 151200Z 32009KT 01/M00 A3018 RMK A01 T00131001  RH  090%=      5-min Rain = 0
KCH1 151201Z 32008KT 01/M00 A3018 RMK A01 T00141001  RH  090%=      5-min Rain = 0
KCH1 151202Z 32009KT 01/M00 A3018 RMK A01 T00141001  RH  090%=      5-min Rain = 0
KCH1 151203Z 32008KT 01/M00 A3018 RMK A01 T00141001  RH  090%=      5-min Rain = 0
KCH1 151204Z 32008KT 01/M00 A3018 RMK A01 T00141001  RH  090%=      5-min Rain = 0
KCH1 151205Z 32007KT 01/M00 A3018 RMK A01 T00141001  RH  090%=      5-min Rain = 0
KCH1 151206Z 32008KT 01/M00 A3018 RMK A01 T00131001  RH  090%=      5-min Rain = 0
KCH1 151207Z 32009KT 01/M00 A3018 RMK A01 T00131001  RH  090%=      5-min Rain = 0
KCH1 151208Z 32008KT 01/M00 A3018 RMK A01 T00131001  RH  090%=      5-min Rain = 0
KCH1 151209Z 32009KT 01/M00 A3018 RMK A01 T00131001  RH  090%=      5-min Rain = 0
KCH1 151210Z 32008KT 01/M00 A3018 RMK A01 T00131001  RH  090%=      5-min Rain = 0
KCH1 151211Z 32009KT 01/M00 A3018 RMK A01 T00131001  RH  090%=      5-min Rain = 0
KCH1 151212Z 32008KT 01/M00 A3018 RMK A01 T00131001  RH  090%=      5-min Rain = 0
KCH1 151213Z 32007KT 01/M00 A3018 RMK A01 T00131002  RH  090%=      5-min Rain = 0
KCH1 151214Z 32008KT 01/M00 A3018 RMK A01 T00131002  RH  090%=      5-min Rain = 0
KCH1 151215Z 32008KT 01/M00 A3018 RMK A01 T00131002  RH  090%=      5-min Rain = 0
KCH1 151216Z 32008KT 01/M00 A3018 RMK A01 T00131002  RH  090%=      5-min Rain = 0
KCH1 151217Z 32008KT 01/M00 A3018 RMK A01 T00131002  RH  090%=      5-min Rain = 0
KCH1 151218Z 32009KT 01/M00 A3018 RMK A01 T00131002  RH  090%=      5-min Rain = 0
KCH1 151219Z 32007KT 01/M00 A3018 RMK A01 T00131002  RH  090%=      5-min Rain = 0
KCH1 151220Z 32008KT 01/M00 A3018 RMK A01 T00131002  RH  090%=      5-min Rain = 0
KCH1 151221Z 31008KT 01/M00 A3018 RMK A01 T00131002  RH  090%=      5-min Rain = 0
KCH1 151222Z 31007KT 01/M00 A3018 RMK A01 T00121002  RH  090%=      5-min Rain = 0
KCH1 151223Z 32008KT 01/M00 A3018 RMK A01 T00131002  RH  090%=      5-min Rain = 0
KCH1 151224Z 32007KT 01/M00 A3018 RMK A01 T00131002  RH  090%=      5-min Rain = 0
KCH1 151225Z 32007KT 01/M00 A3018 RMK A01 T00131002  RH  090%=      5-min Rain = 0
KCH1 151226Z 32007KT 01/M00 A3018 RMK A01 T00121002  RH  090%=      5-min Rain = 0
KCH1 151227Z 32007KT 01/M00 A3018 RMK A01 T00121002  RH  090%=      5-min Rain = 0
KCH1 151228Z 32009KT 01/M00 A3018 RMK A01 T00121002  RH  090%=      5-min Rain = 0
KCH1 151229Z 31008KT 01/M00 A3018 RMK A01 T00121002  RH  091%=      5-min Rain = 0
KCH1 151230Z 32008KT 01/M00 A3018 RMK A01 T00131002  RH  090%=      5-min Rain = 0
KCH1 151231Z 32007KT 01/M00 A3018 RMK A01 T00131002  RH  090%=      5-min Rain = 0
KCH1 151232Z 32008KT 01/M00 A3018 RMK A01 T00131002  RH  090%=      5-min Rain = 0
KCH1 151233Z 32007KT 01/M00 A3018 RMK A01 T00121002  RH  090%=      5-min Rain = 0
KCH1 151234Z 32007KT 01/M00 A3018 RMK A01 T00121002  RH  090%=      5-min Rain = 0
KCH1 151235Z 32008KT 01/M00 A3018 RMK A01 T00121002  RH  090%=      5-min Rain = 0
KCH1 151236Z 32007KT 01/M00 A3018 RMK A01 T00121002  RH  090%=      5-min Rain = 0
KCH1 151237Z 32007KT 01/M00 A3018 RMK A01 T00121002  RH  090%=      5-min Rain = 0
KCH1 151238Z 32008KT 01/M00 A3018 RMK A01 T00121002  RH  090%=      5-min Rain = 0
KCH1 151239Z 32008KT 01/M00 A3018 RMK A01 T00121002  RH  090%=      5-min Rain = 0
KCH1 151240Z 32008KT 01/M00 A3018 RMK A01 T00121002  RH  090%=      5-min Rain = 0
KCH1 151241Z 32008KT 01/M00 A3018 RMK A01 T00121002  RH  090%=      5-min Rain = 0
KCH1 151242Z 32008KT 01/M00 A3018 RMK A01 T00131002  RH  090%=      5-min Rain = 0
KCH1 151243Z 32008KT 01/M00 A3018 RMK A01 T00121002  RH  090%=      5-min Rain = 0
KCH1 151244Z 32008KT 01/M00 A3018 RMK A01 T00121002  RH  090%=      5-min Rain = 0
KCH1 151245Z 32008KT 01/M00 A3018 RMK A01 T00121002  RH  090%=      5-min Rain = 0
KCH1 151246Z 31008KT 01/M00 A3018 RMK A01 T00121002  RH  090%=      5-min Rain = 0
KCH1 151247Z 32007KT 01/M00 A3018 RMK A01 T00121002  RH  090%=      5-min Rain = 0
KCH1 151248Z 32008KT 01/M00 A3018 RMK A01 T00121002  RH  090%=      5-min Rain = 0
KCH1 151249Z 32007KT 01/M00 A3018 RMK A01 T00121002  RH  090%=      5-min Rain = 0
KCH1 151250Z 32008KT 01/M00 A3018 RMK A01 T00121002  RH  090%=      5-min Rain = 0
KCH1 151251Z 32008KT 01/M00 A3019 RMK A01 T00121002  RH  090%=      5-min Rain = 0
KCH1 151252Z 31006KT 01/M00 A3019 RMK A01 T00121003  RH  090%=      5-min Rain = 0
KCH1 151253Z 32007KT 01/M00 A3019 RMK A01 T00121002  RH  090%=      5-min Rain = 0
KCH1 151254Z 32007KT 01/M00 A3019 RMK A01 T00121002  RH  090%=      5-min Rain = 0
KCH1 151255Z 32008KT 01/M00 A3019 RMK A01 T00111002  RH  091%=      5-min Rain = 0
KCH1 151256Z 32007KT 01/M00 A3019 RMK A01 T00111002  RH  091%=      5-min Rain = 0
KCH1 151257Z 32008KT 01/M00 A3019 RMK A01 T00111002  RH  090%=      5-min Rain = 0
KCH1 151258Z 31007KT 01/M00 A3019 RMK A01 T00121003  RH  090%=      5-min Rain = 0
KCH1 151259Z 32007KT 01/M00 A3019 RMK A01 T00121003  RH  090%=      5-min Rain = 0
KCH1 151300Z 31008KT 01/M00 A3019 RMK A01 T00121003  RH  090%=      5-min Rain = 0
KCH1 151301Z 31007KT 01/M00 A3019 RMK A01 T00111003  RH  090%=      5-min Rain = 0
KCH1 151302Z 32007KT 01/M00 A3019 RMK A01 T00121002  RH  091%=      5-min Rain = 0
KCH1 151303Z 32007KT 01/M00 A3019 RMK A01 T00111002  RH  090%=      5-min Rain = 0
KCH1 151304Z 31008KT 01/M00 A3019 RMK A01 T00121002  RH  091%=      5-min Rain = 0
KCH1 151305Z 32008KT 01/M00 A3019 RMK A01 T00121002  RH  091%=      5-min Rain = 0
KCH1 151306Z 31008KT 01/M00 A3019 RMK A01 T00121002  RH  090%=      5-min Rain = 0
KCH1 151307Z 31008KT 01/M00 A3019 RMK A01 T00121002  RH  090%=      5-min Rain = 0
KCH1 151308Z 32008KT 01/M00 A3019 RMK A01 T00121002  RH  090%=      5-min Rain = 0
KCH1 151309Z 32008KT 01/M00 A3019 RMK A01 T00121002  RH  090%=      5-min Rain = 0
KCH1 151310Z 32007KT 01/M00 A3019 RMK A01 T00121003  RH  090%=      5-min Rain = 0
KCH1 151311Z 32007KT 01/M00 A302 RMK A01 T00121002  RH  090%=      5-min Rain = 0
KCH1 151312Z 32007KT 01/M00 A302 RMK A01 T00111003  RH  090%=      5-min Rain = 0
KCH1 151313Z 31008KT 01/M00 A302 RMK A01 T00121003  RH  090%=      5-min Rain = 0
KCH1 151314Z 31008KT 01/M00 A302 RMK A01 T00121003  RH  090%=      5-min Rain = 0
KCH1 151315Z 32007KT 01/M00 A302 RMK A01 T00111003  RH  090%=      5-min Rain = 0
KCH1 151316Z 32006KT 01/M00 A302 RMK A01 T00111003  RH  090%=      5-min Rain = 0
KCH1 151317Z 32008KT 01/M00 A302 RMK A01 T00111003  RH  090%=      5-min Rain = 0
KCH1 151318Z 32008KT 01/M00 A302 RMK A01 T00111003  RH  090%=      5-min Rain = 0
KCH1 151319Z 32008KT 01/M00 A302 RMK A01 T00111004  RH  090%=      5-min Rain = 0
KCH1 151320Z 32007KT 01/M00 A302 RMK A01 T00101003  RH  090%=      5-min Rain = 0
KCH1 151321Z 32008KT 01/M00 A302 RMK A01 T00101004  RH  091%=      5-min Rain = 0
KCH1 151322Z 32007KT 01/M00 A302 RMK A01 T00101003  RH  091%=      5-min Rain = 0
KCH1 151323Z 32008KT 01/M00 A302 RMK A01 T00101003  RH  090%=      5-min Rain = 0
KCH1 151324Z 32008KT 01/M00 A302 RMK A01 T00111003  RH  090%=      5-min Rain = 0
KCH1 151325Z 31008KT 01/M00 A302 RMK A01 T00111003  RH  090%=      5-min Rain = 0
KCH1 151326Z 32009KT 01/M00 A302 RMK A01 T00111004  RH  090%=      5-min Rain = 0
KCH1 151327Z 31009KT 01/M00 A302 RMK A01 T00111004  RH  090%=      5-min Rain = 0
KCH1 151328Z 32008KT 01/M00 A302 RMK A01 T00111004  RH  090%=      5-min Rain = 0
KCH1 151329Z 32008KT 01/M00 A302 RMK A01 T00111004  RH  090%=      5-min Rain = 0
KCH1 151330Z 32008KT 01/M00 A302 RMK A01 T00111004  RH  090%=      5-min Rain = 0
KCH1 151331Z 32008KT 01/M00 A302 RMK A01 T00111004  RH  090%=      5-min Rain = 0
KCH1 151332Z 31008KT 01/M00 A302 RMK A01 T00111004  RH  089%=      5-min Rain = 0
KCH1 151333Z 31007KT 01/M00 A3021 RMK A01 T00111004  RH  089%=      5-min Rain = 0
KCH1 151334Z 31007KT 01/M00 A3021 RMK A01 T00121004  RH  089%=      5-min Rain = 0
KCH1 151335Z 32008KT 01/M00 A3021 RMK A01 T00111004  RH  089%=      5-min Rain = 0
KCH1 151336Z 32008KT 01/M00 A3021 RMK A01 T00111004  RH  089%=      5-min Rain = 0
KCH1 151337Z 31007KT 01/M00 A3021 RMK A01 T00121004  RH  089%=      5-min Rain = 0
KCH1 151338Z 31008KT 01/M00 A3021 RMK A01 T00121004  RH  089%=      5-min Rain = 0
KCH1 151339Z 31008KT 01/M00 A3021 RMK A01 T00111004  RH  089%=      5-min Rain = 0
KCH1 151340Z 31007KT 01/M00 A3021 RMK A01 T00121004  RH  089%=      5-min Rain = 0
KCH1 151341Z 31007KT 01/M00 A3021 RMK A01 T00121004  RH  089%=      5-min Rain = 0
KCH1 151342Z 31008KT 01/M00 A3021 RMK A01 T00121004  RH  089%=      5-min Rain = 0
KCH1 151343Z 31006KT 01/M00 A3021 RMK A01 T00131004  RH  089%=      5-min Rain = 0
KCH1 151344Z 31008KT 01/M00 A3021 RMK A01 T00131003  RH  089%=      5-min Rain = 0
KCH1 151345Z 31008KT 01/M00 A3021 RMK A01 T00141003  RH  089%=      5-min Rain = 0
KCH1 151346Z 31007KT 01/M00 A3021 RMK A01 T00131003  RH  089%=      5-min Rain = 0
KCH1 151347Z 31007KT 01/M00 A3021 RMK A01 T00141003  RH  088%=      5-min Rain = 0
KCH1 151348Z 31007KT 02/M00 A3021 RMK A01 T00151002  RH  088%=      5-min Rain = 0
KCH1 151349Z 31007KT 02/M00 A3021 RMK A01 T00151002  RH  088%=      5-min Rain = 0
KCH1 151350Z 31008KT 02/M00 A3021 RMK A01 T00151003  RH  088%=      5-min Rain = 0
KCH1 151351Z 31008KT 02/M00 A3021 RMK A01 T00151002  RH  088%=      5-min Rain = 0
KCH1 151352Z 32007KT 02/M00 A3021 RMK A01 T00161003  RH  088%=      5-min Rain = 0
KCH1 151353Z 31008KT 02/M00 A3022 RMK A01 T00161003  RH  088%=      5-min Rain = 0
KCH1 151354Z 31008KT 02/M00 A3022 RMK A01 T00161002  RH  087%=      5-min Rain = 0
KCH1 151355Z 31007KT 02/M00 A3022 RMK A01 T00171003  RH  087%=      5-min Rain = 0
KCH1 151356Z 31008KT 02/M00 A3022 RMK A01 T00171003  RH  087%=      5-min Rain = 0
KCH1 151357Z 31008KT 02/M00 A3022 RMK A01 T00171003  RH  087%=      5-min Rain = 0
KCH1 151358Z 31008KT 02/M00 A3022 RMK A01 T00171003  RH  086%=      5-min Rain = 0
KCH1 151359Z 31008KT 02/M00 A3022 RMK A01 T00181003  RH  086%=      5-min Rain = 0
KCH1 151400Z 31008KT 02/M00 A3022 RMK A01 T00181003  RH  086%=      5-min Rain = 0
KCH1 151401Z 31007KT 02/M00 A3022 RMK A01 T00181002  RH  086%=      5-min Rain = 0
KCH1 151402Z 32006KT 02/M00 A3022 RMK A01 T00181002  RH  086%=      5-min Rain = 0
KCH1 151403Z 31007KT 02/M00 A3022 RMK A01 T00191001  RH  087%=      5-min Rain = 0
KCH1 151404Z 32006KT 02/M00 A3022 RMK A01 T00191001  RH  087%=      5-min Rain = 0
KCH1 151405Z 32008KT 02/M00 A3022 RMK A01 T00191001  RH  086%=      5-min Rain = 0
KCH1 151406Z 32008KT 02/M00 A3022 RMK A01 T00201001  RH  086%=      5-min Rain = 0
KCH1 151407Z 31007KT 02/M00 A3022 RMK A01 T00201002  RH  086%=      5-min Rain = 0
KCH1 151408Z 32007KT 02/M00 A3022 RMK A01 T00201001  RH  086%=      5-min Rain = 0
KCH1 151409Z 31008KT 02/M00 A3022 RMK A01 T00201002  RH  085%=      5-min Rain = 0
KCH1 151410Z 31008KT 02/M00 A3023 RMK A01 T00211002  RH  085%=      5-min Rain = 0
KCH1 151411Z 32009KT 02/M00 A3023 RMK A01 T00211002  RH  085%=      5-min Rain = 0
KCH1 151412Z 32007KT 02/M00 A3023 RMK A01 T00211002  RH  085%=      5-min Rain = 0
KCH1 151413Z 31007KT 02/M00 A3023 RMK A01 T00211002  RH  085%=      5-min Rain = 0
KCH1 151414Z 31007KT 02/M00 A3023 RMK A01 T00221001  RH  085%=      5-min Rain = 0
KCH1 151415Z 31008KT 02/M00 A3023 RMK A01 T00221001  RH  085%=      5-min Rain = 0
KCH1 151416Z 32009KT 02/M00 A3023 RMK A01 T00221001  RH  085%=      5-min Rain = 0
KCH1 151417Z 31007KT 02/M00 A3023 RMK A01 T00221002  RH  084%=      5-min Rain = 0
KCH1 151418Z 32007KT 02/M00 A3023 RMK A01 T00231001  RH  084%=      5-min Rain = 0
KCH1 151419Z 32007KT 02/00 A3023 RMK A01 T002300-0  RH  084%=      5-min Rain = 0
KCH1 151420Z 32007KT 02/00 A3023 RMK A01 T002300-0  RH  084%=      5-min Rain = 0
KCH1 151421Z 32007KT 02/00 A3023 RMK A01 T00240000  RH  084%=      5-min Rain = 0
KCH1 151422Z 32008KT 02/00 A3023 RMK A01 T002400-0  RH  084%=      5-min Rain = 0
KCH1 151423Z 32008KT 02/M00 A3023 RMK A01 T00241001  RH  083%=      5-min Rain = 0
KCH1 151424Z 32007KT 03/M00 A3023 RMK A01 T00251001  RH  083%=      5-min Rain = 0
KCH1 151425Z 32008KT 03/M00 A3023 RMK A01 T00251001  RH  083%=      5-min Rain = 0
KCH1 151426Z 32007KT 03/M00 A3023 RMK A01 T00251001  RH  083%=      5-min Rain = 0
KCH1 151427Z 32008KT 03/00 A3023 RMK A01 T002600-0  RH  083%=      5-min Rain = 0
KCH1 151428Z 31008KT 03/M00 A3023 RMK A01 T00261001  RH  083%=      5-min Rain = 0
KCH1 151429Z 32010KT 03/M00 A3023 RMK A01 T00261001  RH  082%=      5-min Rain = 0
KCH1 151430Z 32009KT 03/M00 A3023 RMK A01 T00261001  RH  082%=      5-min Rain = 0
KCH1 151431Z 32009KT 03/M00 A3023 RMK A01 T00261001  RH  082%=      5-min Rain = 0
KCH1 151432Z 32008KT 03/M00 A3023 RMK A01 T00271001  RH  082%=      5-min Rain = 0
KCH1 151433Z 32008KT 03/00 A3023 RMK A01 T002800-0  RH  082%=      5-min Rain = 0
KCH1 151434Z 32008KT 03/00 A3023 RMK A01 T002800-0  RH  082%=      5-min Rain = 0
KCH1 151435Z 31006KT 03/M00 A3024 RMK A01 T00281001  RH  081%=      5-min Rain = 0
KCH1 151436Z 32007KT 03/00 A3024 RMK A01 T00290000  RH  082%=      5-min Rain = 0
KCH1 151437Z 32007KT 03/00 A3024 RMK A01 T00290000  RH  081%=      5-min Rain = 0
KCH1 151438Z 32006KT 03/00 A3024 RMK A01 T00300000  RH  081%=      5-min Rain = 0
KCH1 151439Z 32005KT 03/00 A3024 RMK A01 T00310001  RH  081%=      5-min Rain = 0
KCH1 151440Z 32007KT 03/00 A3024 RMK A01 T00320003  RH  081%=      5-min Rain = 0
KCH1 151441Z 31006KT 03/00 A3024 RMK A01 T00320001  RH  080%=      5-min Rain = 0
KCH1 151442Z 31006KT 03/00 A3024 RMK A01 T00320001  RH  080%=      5-min Rain = 0
KCH1 151443Z 31005KT 03/00 A3024 RMK A01 T00320001  RH  080%=      5-min Rain = 0
KCH1 151444Z 32006KT 03/00 A3024 RMK A01 T00340004  RH  081%=      5-min Rain = 0
KCH1 151445Z 32007KT 03/00 A3024 RMK A01 T00340002  RH  079%=      5-min Rain = 0
KCH1 151446Z 32007KT 03/00 A3024 RMK A01 T00340000  RH  078%=      5-min Rain = 0
KCH1 151447Z 31007KT 04/00 A3025 RMK A01 T00350002  RH  079%=      5-min Rain = 0
KCH1 151448Z 31006KT 04/00 A3025 RMK A01 T00360001  RH  078%=      5-min Rain = 0
KCH1 151449Z 32007KT 04/00 A3025 RMK A01 T00360002  RH  078%=      5-min Rain = 0
KCH1 151450Z 31006KT 04/00 A3025 RMK A01 T00370002  RH  077%=      5-min Rain = 0
KCH1 151451Z 31006KT 04/00 A3025 RMK A01 T00370002  RH  078%=      5-min Rain = 0
KCH1 151452Z 32008KT 04/00 A3025 RMK A01 T00370002  RH  078%=      5-min Rain = 0
KCH1 151453Z 32006KT 04/00 A3025 RMK A01 T00370003  RH  078%=      5-min Rain = 0
KCH1 151454Z 32006KT 04/00 A3025 RMK A01 T00380003  RH  078%=      5-min Rain = 0
KCH1 151455Z 31005KT 04/01 A3025 RMK A01 T00390005  RH  078%=      5-min Rain = 0
KCH1 151456Z 32005KT 04/01 A3025 RMK A01 T00400005  RH  078%=      5-min Rain = 0
KCH1 151457Z 32005KT 04/01 A3025 RMK A01 T00410006  RH  078%=      5-min Rain = 0
KCH1 151458Z 32007KT 04/01 A3025 RMK A01 T00420006  RH  077%=      5-min Rain = 0
KCH1 151459Z 32005KT 04/01 A3025 RMK A01 T00430005  RH  076%=      5-min Rain = 0
KCH1 151500Z 32005KT 04/01 A3025 RMK A01 T00430005  RH  076%=      5-min Rain = 0
KCH1 151501Z 33004KT 05/01 A3025 RMK A01 T00450008  RH  077%=      5-min Rain = 0
KCH1 151502Z 32005KT 05/01 A3026 RMK A01 T00470008  RH  076%=      5-min Rain = 0
KCH1 151503Z 33006KT 05/01 A3026 RMK A01 T00480006  RH  074%=      5-min Rain = 0
KCH1 151504Z 33006KT 05/01 A3026 RMK A01 T00500005  RH  073%=      5-min Rain = 0
KCH1 151505Z 33006KT 05/01 A3026 RMK A01 T00510005  RH  072%=      5-min Rain = 0
KCH1 151506Z 32006KT 05/01 A3026 RMK A01 T00510005  RH  072%=      5-min Rain = 0
KCH1 151507Z 33005KT 05/01 A3026 RMK A01 T00540006  RH  072%=      5-min Rain = 0
KCH1 151508Z 33005KT 06/01 A3026 RMK A01 T00560006  RH  070%=      5-min Rain = 0
KCH1 151509Z 32005KT 06/01 A3026 RMK A01 T00570005  RH  069%=      5-min Rain = 0
KCH1 151510Z 32005KT 06/01 A3026 RMK A01 T00580005  RH  069%=      5-min Rain = 0
KCH1 151511Z 32007KT 06/00 A3026 RMK A01 T00590003  RH  067%=      5-min Rain = 0
KCH1 151512Z 32006KT 06/00 A3026 RMK A01 T00580001  RH  067%=      5-min Rain = 0
KCH1 151513Z 35006KT 06/00 A3026 RMK A01 T00580000  RH  066%=      5-min Rain = 0
KCH1 151514Z 34007KT 06/00 A3026 RMK A01 T00580000  RH  066%=      5-min Rain = 0
KCH1 151515Z 34006KT 06/00 A3026 RMK A01 T00590001  RH  066%=      5-min Rain = 0
KCH1 151516Z 34005KT 06/00 A3026 RMK A01 T006000-0  RH  065%=      5-min Rain = 0
KCH1 151517Z 33006KT 06/00 A3026 RMK A01 T00610000  RH  065%=      5-min Rain = 0
KCH1 151518Z 32007KT 06/00 A3026 RMK A01 T00620001  RH  065%=      5-min Rain = 0
KCH1 151519Z 33006KT 06/00 A3026 RMK A01 T00620001  RH  065%=      5-min Rain = 0
KCH1 151520Z 33006KT 06/00 A3026 RMK A01 T00630002  RH  065%=      5-min Rain = 0
KCH1 151521Z 33006KT 06/00 A3026 RMK A01 T00640002  RH  065%=      5-min Rain = 0
KCH1 151522Z 33006KT 06/00 A3026 RMK A01 T00640000  RH  064%=      5-min Rain = 0
KCH1 151523Z 33007KT 06/00 A3026 RMK A01 T00640000  RH  064%=      5-min Rain = 0
KCH1 151524Z 35006KT 07/00 A3026 RMK A01 T00650000  RH  063%=      5-min Rain = 0
KCH1 151525Z 34004KT 07/00 A3026 RMK A01 T00660002  RH  064%=      5-min Rain = 0
KCH1 151526Z 35005KT 07/01 A3026 RMK A01 T00680005  RH  064%=      5-min Rain = 0
KCH1 151527Z 34004KT 07/00 A3026 RMK A01 T00680004  RH  063%=      5-min Rain = 0
KCH1 151528Z 35005KT 07/01 A3026 RMK A01 T00700007  RH  064%=      5-min Rain = 0
KCH1 151529Z 36009KT 07/00 A3026 RMK A01 T00710002  RH  061%=      5-min Rain = 0
KCH1 151530Z 36008KT 07/M00 A3026 RMK A01 T00711002  RH  060%=      5-min Rain = 0
KCH1 151531Z 35008KT 07/M00 A3026 RMK A01 T00701002  RH  060%=      5-min Rain = 0
KCH1 151532Z 35008KT 07/M00 A3026 RMK A01 T00701003  RH  060%=      5-min Rain = 0
KCH1 151533Z 35009KT 07/M00 A3026 RMK A01 T00701003  RH  060%=      5-min Rain = 0
KCH1 151534Z 00009KT 07/M01 A3026 RMK A01 T00701005  RH  059%=      5-min Rain = 0
KCH1 151535Z 01008KT 07/M00 A3026 RMK A01 T00711002  RH  060%=      5-min Rain = 0
KCH1 151536Z 00006KT 07/M00 A3026 RMK A01 T00731002  RH  059%=      5-min Rain = 0
KCH1 151537Z 35007KT 07/00 A3026 RMK A01 T007300-0  RH  060%=      5-min Rain = 0
KCH1 151538Z 35007KT 08/00 A3026 RMK A01 T00750001  RH  059%=      5-min Rain = 0
KCH1 151539Z 35009KT 08/M00 A3026 RMK A01 T00751002  RH  058%=      5-min Rain = 0
KCH1 151540Z 00007G12KT 07/M01 A3026 RMK A01 T00741005  RH  057%=      5-min Rain = 0
KCH1 151541Z 35008KT 07/M00 A3026 RMK A01 T00741003  RH  058%=      5-min Rain = 0
KCH1 151542Z 35008KT 08/M00 A3026 RMK A01 T00751002  RH  058%=      5-min Rain = 0
KCH1 151543Z 35007G12KT 08/M00 A3026 RMK A01 T00761002  RH  058%=      5-min Rain = 0
KCH1 151544Z 36008G14KT 08/M00 A3026 RMK A01 T00761004  RH  057%=      5-min Rain = 0
KCH1 151545Z 34009KT 08/M00 A3026 RMK A01 T00771002  RH  058%=      5-min Rain = 0
KCH1 151546Z 35009KT 08/M00 A3026 RMK A01 T00781004  RH  056%=      5-min Rain = 0
KCH1 151547Z 35008KT 08/M01 A3026 RMK A01 T00791005  RH  056%=      5-min Rain = 0
KCH1 151548Z 36008KT 08/M01 A3026 RMK A01 T00791005  RH  055%=      5-min Rain = 0
KCH1 151549Z 36007KT 08/M01 A3026 RMK A01 T00791006  RH  055%=      5-min Rain = 0
KCH1 151550Z 35007KT 08/M01 A3026 RMK A01 T00791005  RH  055%=      5-min Rain = 0
KCH1 151551Z 34007KT 08/M00 A3026 RMK A01 T00801004  RH  055%=      5-min Rain = 0
KCH1 151552Z 36009KT 08/M00 A3026 RMK A01 T00821003  RH  055%=      5-min Rain = 0
KCH1 151553Z 35009KT 08/M01 A3026 RMK A01 T00821005  RH  054%=      5-min Rain = 0
KCH1 151554Z 35008KT 08/M01 A3026 RMK A01 T00821007  RH  053%=      5-min Rain = 0
KCH1 151555Z 35009KT 08/M01 A3026 RMK A01 T00821006  RH  054%=      5-min Rain = 0
KCH1 151556Z 01009G14KT 08/M01 A3026 RMK A01 T00821006  RH  054%=      5-min Rain = 0
KCH1 151557Z 02011KT 08/M01 A3026 RMK A01 T00831009  RH  052%=      5-min Rain = 0
KCH1 151558Z 02009KT 08/M01 A3026 RMK A01 T00831009  RH  052%=      5-min Rain = 0
KCH1 151559Z 02007KT 08/M01 A3026 RMK A01 T00841009  RH  052%=      5-min Rain = 0
KCH1 151600Z 02008G13KT 08/M01 A3027 RMK A01 T00841007  RH  052%=      5-min Rain = 0
KCH1 151601Z 01012KT 09/M01 A3027 RMK A01 T00861009  RH  051%=      5-min Rain = 0
KCH1 151602Z 02007KT 09/M01 A3027 RMK A01 T00861011  RH  050%=      5-min Rain = 0
KCH1 151603Z 35006KT 09/M01 A3027 RMK A01 T00861008  RH  052%=      5-min Rain = 0
KCH1 151604Z 35009KT 09/M01 A3027 RMK A01 T00871005  RH  052%=      5-min Rain = 0
KCH1 151605Z 36008KT 09/M01 A3027 RMK A01 T00881007  RH  051%=      5-min Rain = 0
KCH1 151606Z 35012KT 09/M01 A3027 RMK A01 T00871009  RH  051%=      5-min Rain = 0
KCH1 151607Z 35009KT 09/M01 A3027 RMK A01 T00861012  RH  050%=      5-min Rain = 0
KCH1 151608Z 36008KT 09/M01 A3027 RMK A01 T00851009  RH  052%=      5-min Rain = 0
KCH1 151609Z 01008KT 09/M01 A3027 RMK A01 T00861005  RH  053%=      5-min Rain = 0
KCH1 151610Z 01009KT 09/M00 A3027 RMK A01 T00881004  RH  052%=      5-min Rain = 0
KCH1 151611Z 35011KT 09/M01 A3027 RMK A01 T00881006  RH  052%=      5-min Rain = 0
KCH1 151612Z 01009KT 09/M01 A3027 RMK A01 T00881007  RH  051%=      5-min Rain = 0
KCH1 151613Z 01010G15KT 09/M01 A3027 RMK A01 T00891008  RH  051%=      5-min Rain = 0
KCH1 151614Z 01009KT 09/M01 A3027 RMK A01 T00871011  RH  050%=      5-min Rain = 0
KCH1 151615Z 02008KT 09/M01 A3027 RMK A01 T00861010  RH  051%=      5-min Rain = 0
KCH1 151616Z 02008KT 09/M01 A3027 RMK A01 T00861006  RH  052%=      5-min Rain = 0
KCH1 151617Z 35009KT 09/M01 A3027 RMK A01 T00891005  RH  052%=      5-min Rain = 0
KCH1 151618Z 36007KT 09/M01 A3027 RMK A01 T00891006  RH  051%=      5-min Rain = 0
KCH1 151619Z 00007KT 09/M01 A3027 RMK A01 T00881008  RH  051%=      5-min Rain = 0
KCH1 151620Z 01011KT 09/M01 A3027 RMK A01 T00881007  RH  051%=      5-min Rain = 0
KCH1 151621Z 35011KT 09/M01 A3027 RMK A01 T00861010  RH  051%=      5-min Rain = 0
KCH1 151622Z 01010KT 08/M01 A3027 RMK A01 T00841011  RH  051%=      5-min Rain = 0
KCH1 151623Z 01007KT 08/M01 A3027 RMK A01 T00841008  RH  052%=      5-min Rain = 0
KCH1 151624Z 36006KT 09/M00 A3027 RMK A01 T00871002  RH  053%=      5-min Rain = 0
KCH1 151625Z 35009KT 09/M01 A3027 RMK A01 T00891008  RH  051%=      5-min Rain = 0
KCH1 151626Z 01006KT 09/M01 A3027 RMK A01 T00871006  RH  052%=      5-min Rain = 0
KCH1 151627Z 01008KT 09/M00 A3027 RMK A01 T00901003  RH  052%=      5-min Rain = 0
KCH1 151628Z 35008KT 09/M00 A3027 RMK A01 T00911003  RH  052%=      5-min Rain = 0
KCH1 151629Z 36010KT 09/M00 A3027 RMK A01 T00931003  RH  051%=      5-min Rain = 0
KCH1 151630Z 01008KT 09/M01 A3027 RMK A01 T00931007  RH  050%=      5-min Rain = 0
KCH1 151631Z 02011KT 09/M01 A3027 RMK A01 T00921006  RH  050%=      5-min Rain = 0
KCH1 151632Z 02007KT 09/M01 A3027 RMK A01 T00931006  RH  050%=      5-min Rain = 0
KCH1 151633Z 02009KT 10/M00 A3027 RMK A01 T00961004  RH  050%=      5-min Rain = 0
KCH1 151634Z 03009KT 10/M01 A3027 RMK A01 T00971007  RH  048%=      5-min Rain = 0
KCH1 151635Z 03010KT 10/M01 A3027 RMK A01 T00961009  RH  048%=      5-min Rain = 0
KCH1 151636Z 03007KT 09/M01 A3027 RMK A01 T00941012  RH  048%=      5-min Rain = 0
KCH1 151637Z 02005KT 09/M01 A3027 RMK A01 T00921011  RH  049%=      5-min Rain = 0
KCH1 151638Z 36005KT 09/M00 A3027 RMK A01 T00931003  RH  051%=      5-min Rain = 0
KCH1 151639Z 35007KT 10/M00 A3027 RMK A01 T00951003  RH  050%=      5-min Rain = 0
KCH1 151640Z 36006KT 10/M00 A3027 RMK A01 T00961002  RH  050%=      5-min Rain = 0
KCH1 151641Z 00006KT 10/M00 A3027 RMK A01 T00971003  RH  050%=      5-min Rain = 0
KCH1 151642Z 34005G10KT 10/M01 A3027 RMK A01 T00971005  RH  049%=      5-min Rain = 0
KCH1 151643Z 35009KT 10/M01 A3027 RMK A01 T00961005  RH  049%=      5-min Rain = 0
KCH1 151644Z 00010KT 10/M01 A3027 RMK A01 T00961007  RH  049%=      5-min Rain = 0
KCH1 151645Z 36008KT 09/M01 A3027 RMK A01 T00931009  RH  049%=      5-min Rain = 0
KCH1 151646Z 00006KT 09/M01 A3027 RMK A01 T00921010  RH  049%=      5-min Rain = 0
KCH1 151647Z 35008KT 09/M01 A3027 RMK A01 T00911009  RH  050%=      5-min Rain = 0
KCH1 151648Z 35007KT 09/M01 A3027 RMK A01 T00911009  RH  050%=      5-min Rain = 0
KCH1 151649Z 00007KT 09/M01 A3027 RMK A01 T00931005  RH  050%=      5-min Rain = 0
KCH1 151650Z 35009KT 10/M01 A3027 RMK A01 T00951005  RH  050%=      5-min Rain = 0
KCH1 151651Z 00010KT 10/M01 A3027 RMK A01 T00971006  RH  049%=      5-min Rain = 0
KCH1 151652Z 36010KT 10/M01 A3027 RMK A01 T00981007  RH  048%=      5-min Rain = 0
KCH1 151653Z 35007KT 10/M01 A3027 RMK A01 T00961013  RH  047%=      5-min Rain = 0
KCH1 151654Z 35008KT 10/M01 A3027 RMK A01 T00971008  RH  048%=      5-min Rain = 0
KCH1 151655Z 01006KT 10/M01 A3027 RMK A01 T00991005  RH  048%=      5-min Rain = 0
KCH1 151656Z 03009KT 11/00 A3027 RMK A01 T010500-0  RH  048%=      5-min Rain = 0
KCH1 151657Z 02009KT 11/M01 A3027 RMK A01 T01071009  RH  044%=      5-min Rain = 0
KCH1 151658Z 01008KT 11/M02 A3027 RMK A01 T01051015  RH  043%=      5-min Rain = 0
KCH1 151659Z 02008KT 10/M01 A3027 RMK A01 T01031011  RH  045%=      5-min Rain = 0
KCH1 151700Z 36006KT 11/M01 A3027 RMK A01 T01051006  RH  046%=      5-min Rain = 0
KCH1 151701Z 35007KT 11/M01 A3027 RMK A01 T01061009  RH  045%=      5-min Rain = 0
KCH1 151702Z 35006KT 11/M01 A3027 RMK A01 T01061009  RH  045%=      5-min Rain = 0
KCH1 151703Z 36007KT 11/M01 A3027 RMK A01 T01051010  RH  045%=      5-min Rain = 0
KCH1 151704Z 36009KT 10/M02 A3027 RMK A01 T01041015  RH  043%=      5-min Rain = 0
KCH1 151705Z 01010KT 10/M02 A3027 RMK A01 T01021015  RH  044%=      5-min Rain = 0
KCH1 151706Z 01009KT 10/M01 A3027 RMK A01 T01021014  RH  044%=      5-min Rain = 0
KCH1 151707Z 02006KT 10/M01 A3027 RMK A01 T01031013  RH  045%=      5-min Rain = 0
KCH1 151708Z 03008KT 11/M01 A3027 RMK A01 T01051008  RH  045%=      5-min Rain = 0
KCH1 151709Z 03008KT 11/M01 A3027 RMK A01 T01071010  RH  044%=      5-min Rain = 0
KCH1 151710Z 02008KT 11/M01 A3027 RMK A01 T01071008  RH  045%=      5-min Rain = 0
KCH1 151711Z 01006KT 11/M01 A3027 RMK A01 T01091007  RH  045%=      5-min Rain = 0
KCH1 151712Z 02007KT 11/M01 A3027 RMK A01 T01111006  RH  044%=      5-min Rain = 0
KCH1 151713Z 01007KT 11/M01 A3027 RMK A01 T01121010  RH  043%=      5-min Rain = 0
KCH1 151714Z 00006KT 11/M02 A3027 RMK A01 T01091016  RH  042%=      5-min Rain = 0
KCH1 151715Z 02006KT 11/M01 A3027 RMK A01 T01061011  RH  044%=      5-min Rain = 0
KCH1 151716Z 01009KT 11/M01 A3027 RMK A01 T01081010  RH  044%=      5-min Rain = 0
KCH1 151717Z 01007KT 11/M01 A3027 RMK A01 T01091012  RH  043%=      5-min Rain = 0
KCH1 151718Z 02005KT 11/M01 A3027 RMK A01 T01101007  RH  044%=      5-min Rain = 0
KCH1 151719Z 02006KT 11/M01 A3027 RMK A01 T01121009  RH  043%=      5-min Rain = 0
KCH1 151720Z 02005G12KT 11/M01 A3027 RMK A01 T01121011  RH  042%=      5-min Rain = 0
KCH1 151721Z 01009G14KT 11/M02 A3027 RMK A01 T01111015  RH  041%=      5-min Rain = 0
KCH1 151722Z 00009G14KT 11/M02 A3027 RMK A01 T01091016  RH  042%=      5-min Rain = 0
KCH1 151723Z 36009KT 11/M02 A3027 RMK A01 T01091016  RH  042%=      5-min Rain = 0
KCH1 151724Z 36008KT 11/M02 A3027 RMK A01 T01071016  RH  042%=      5-min Rain = 0
KCH1 151725Z 00009KT 11/M01 A3027 RMK A01 T01071014  RH  043%=      5-min Rain = 0
KCH1 151726Z 02004KT 11/M01 A3027 RMK A01 T01081011  RH  044%=      5-min Rain = 0
KCH1 151727Z 02004KT 11/M01 A3027 RMK A01 T01101009  RH  044%=      5-min Rain = 0
KCH1 151728Z 04006KT 11/M01 A3027 RMK A01 T01121009  RH  043%=      5-min Rain = 0
KCH1 151729Z 03011G16KT 11/M01 A3027 RMK A01 T01131009  RH  043%=      5-min Rain = 0
KCH1 151730Z 01008KT 11/M01 A3027 RMK A01 T01141013  RH  041%=      5-min Rain = 0
KCH1 151731Z 00006KT 11/M01 A3027 RMK A01 T01131013  RH  042%=      5-min Rain = 0
KCH1 151732Z 01007KT 11/M01 A3027 RMK A01 T01141010  RH  042%=      5-min Rain = 0
KCH1 151733Z 02008KT 12/M01 A3027 RMK A01 T01151012  RH  041%=      5-min Rain = 0
KCH1 151734Z 01007KT 11/M02 A3027 RMK A01 T01141015  RH  041%=      5-min Rain = 0
KCH1 151735Z 01008KT 11/M01 A3027 RMK A01 T01131012  RH  042%=      5-min Rain = 0
KCH1 151736Z 02010KT 11/M01 A3027 RMK A01 T01131012  RH  042%=      5-min Rain = 0
KCH1 151737Z 02010KT 11/M02 A3027 RMK A01 T01121017  RH  041%=      5-min Rain = 0
KCH1 151738Z 02008KT 11/M02 A3027 RMK A01 T01121015  RH  041%=      5-min Rain = 0
KCH1 151739Z 01010KT 11/M01 A3027 RMK A01 T01131014  RH  041%=      5-min Rain = 0
KCH1 151740Z 01010KT 11/M02 A3027 RMK A01 T01131020  RH  040%=      5-min Rain = 0
KCH1 151741Z 03012KT 11/M02 A3027 RMK A01 T01111021  RH  040%=      5-min Rain = 0
KCH1 151742Z 03008KT 11/M02 A3027 RMK A01 T01111018  RH  041%=      5-min Rain = 0
KCH1 151743Z 35005KT 11/M01 A3027 RMK A01 T01121010  RH  043%=      5-min Rain = 0
KCH1 151744Z 02004G9KT 12/M01 A3027 RMK A01 T01161010  RH  042%=      5-min Rain = 0
KCH1 151745Z 02012G17KT 12/M01 A3027 RMK A01 T01171012  RH  041%=      5-min Rain = 0
KCH1 151746Z 02010KT 12/M01 A3027 RMK A01 T01171011  RH  041%=      5-min Rain = 0
KCH1 151747Z 03007KT 12/M01 A3027 RMK A01 T01171012  RH  041%=      5-min Rain = 0
KCH1 151748Z 04008KT 12/M01 A3027 RMK A01 T01171012  RH  041%=      5-min Rain = 0
KCH1 151749Z 03008KT 12/M01 A3027 RMK A01 T01171013  RH  040%=      5-min Rain = 0
KCH1 151750Z 04010KT 12/M02 A3027 RMK A01 T01161015  RH  040%=      5-min Rain = 0
KCH1 151751Z 03009KT 12/M01 A3027 RMK A01 T01151014  RH  041%=      5-min Rain = 0
KCH1 151752Z 01007KT 11/M01 A3026 RMK A01 T01141012  RH  042%=      5-min Rain = 0
KCH1 151753Z 00007KT 12/M01 A3026 RMK A01 T01151012  RH  041%=      5-min Rain = 0
KCH1 151754Z 02004KT 11/M02 A3026 RMK A01 T01121016  RH  041%=      5-min Rain = 0
KCH1 151755Z 03010KT 11/M01 A3026 RMK A01 T01131008  RH  043%=      5-min Rain = 0
KCH1 151756Z 03008KT 12/M01 A3026 RMK A01 T01151013  RH  041%=      5-min Rain = 0
KCH1 151757Z 03009KT 11/M01 A3026 RMK A01 T01131013  RH  042%=      5-min Rain = 0
KCH1 151758Z 03007KT 11/M01 A3026 RMK A01 T01141012  RH  042%=      5-min Rain = 0
KCH1 151759Z 01008KT 12/M01 A3026 RMK A01 T01171007  RH  042%=      5-min Rain = 0
KCH1 151800Z 02005KT 12/M01 A3026 RMK A01 T01201006  RH  042%=      5-min Rain = 0
KCH1 151801Z 01007KT 12/M01 A3026 RMK A01 T01211008  RH  041%=      5-min Rain = 0
KCH1 151802Z 35009KT 12/M01 A3026 RMK A01 T01221009  RH  040%=      5-min Rain = 0
KCH1 151803Z 34006KT 12/M02 A3026 RMK A01 T01181015  RH  040%=      5-min Rain = 0
KCH1 151804Z 02007KT 12/M01 A3026 RMK A01 T01161011  RH  041%=      5-min Rain = 0
KCH1 151805Z 00007KT 12/M01 A3026 RMK A01 T01181010  RH  041%=      5-min Rain = 0
KCH1 151806Z 02005KT 12/M01 A3026 RMK A01 T01171012  RH  041%=      5-min Rain = 0
KCH1 151807Z 35007KT 12/M01 A3026 RMK A01 T01181008  RH  042%=      5-min Rain = 0
KCH1 151808Z 36007KT 12/M01 A3026 RMK A01 T01181010  RH  041%=      5-min Rain = 0
KCH1 151809Z 03006KT 12/M01 A3026 RMK A01 T01191007  RH  042%=      5-min Rain = 0
KCH1 151810Z 36007KT 12/M01 A3026 RMK A01 T01201007  RH  041%=      5-min Rain = 0
KCH1 151811Z 34006G12KT 12/M01 A3026 RMK A01 T01211005  RH  042%=      5-min Rain = 0
KCH1 151812Z 34007KT 12/M01 A3026 RMK A01 T01221007  RH  041%=      5-min Rain = 0
KCH1 151813Z 33008KT 12/M01 A3026 RMK A01 T01201011  RH  040%=      5-min Rain = 0
KCH1 151814Z 33010G15KT 12/M01 A3026 RMK A01 T01181012  RH  040%=      5-min Rain = 0
KCH1 151815Z 34013KT 12/M02 A3026 RMK A01 T01181016  RH  039%=      5-min Rain = 0
KCH1 151816Z 00010KT 12/M02 A3026 RMK A01 T01161017  RH  040%=      5-min Rain = 0
KCH1 151817Z 36008KT 12/M01 A3026 RMK A01 T01161013  RH  041%=      5-min Rain = 0
KCH1 151818Z 36008KT 12/M01 A3026 RMK A01 T01181007  RH  042%=      5-min Rain = 0
KCH1 151819Z 00008KT 12/M01 A3026 RMK A01 T01211008  RH  041%=      5-min Rain = 0
KCH1 151820Z 01009KT 12/M01 A3026 RMK A01 T01191014  RH  040%=      5-min Rain = 0
KCH1 151821Z 01005KT 12/M01 A3025 RMK A01 T01171014  RH  040%=      5-min Rain = 0
KCH1 151822Z 03003KT 12/M01 A3025 RMK A01 T01171008  RH  042%=      5-min Rain = 0
KCH1 151823Z 01006G13KT 12/M01 A3025 RMK A01 T01201005  RH  042%=      5-min Rain = 0
KCH1 151824Z 35011KT 12/M01 A3025 RMK A01 T01211014  RH  039%=      5-min Rain = 0
KCH1 151825Z 35013KT 12/M02 A3025 RMK A01 T01191016  RH  039%=      5-min Rain = 0
KCH1 151826Z 00009KT 12/M02 A3025 RMK A01 T01181016  RH  039%=      5-min Rain = 0
KCH1 151827Z 00009KT 12/M01 A3025 RMK A01 T01171013  RH  040%=      5-min Rain = 0
KCH1 151828Z 35010KT 12/M01 A3025 RMK A01 T01191013  RH  040%=      5-min Rain = 0
KCH1 151829Z 32011KT 12/M01 A3025 RMK A01 T01191014  RH  040%=      5-min Rain = 0
KCH1 151830Z 35009G16KT 12/M01 A3025 RMK A01 T01201008  RH  041%=      5-min Rain = 0
KCH1 151831Z 33011KT 12/M01 A3025 RMK A01 T01221009  RH  040%=      5-min Rain = 0
KCH1 151832Z 34007KT 12/M01 A3025 RMK A01 T01191014  RH  040%=      5-min Rain = 0
KCH1 151833Z 34012KT 12/M01 A3025 RMK A01 T01181014  RH  040%=      5-min Rain = 0
KCH1 151834Z 35010KT 12/M01 A3025 RMK A01 T01181014  RH  040%=      5-min Rain = 0
KCH1 151835Z 36006KT 12/M01 A3025 RMK A01 T01191012  RH  040%=      5-min Rain = 0
KCH1 151836Z 36005KT 12/M01 A3025 RMK A01 T01231006  RH  041%=      5-min Rain = 0
KCH1 151837Z 34008KT 13/M01 A3025 RMK A01 T01271008  RH  039%=      5-min Rain = 0
KCH1 151838Z 35011KT 13/M02 A3025 RMK A01 T01251018  RH  037%=      5-min Rain = 0
KCH1 151839Z 34009KT 12/M02 A3025 RMK A01 T01221022  RH  037%=      5-min Rain = 0
KCH1 151840Z 34008KT 12/M02 A3025 RMK A01 T01211021  RH  037%=      5-min Rain = 0
KCH1 151841Z 32009KT 12/M02 A3024 RMK A01 T01191020  RH  038%=      5-min Rain = 0
KCH1 151842Z 32009KT 12/M02 A3024 RMK A01 T01191019  RH  038%=      5-min Rain = 0
KCH1 151843Z 31010KT 12/M02 A3024 RMK A01 T01201020  RH  038%=      5-min Rain = 0
KCH1 151844Z 32008KT 12/M02 A3024 RMK A01 T01201024  RH  037%=      5-min Rain = 0
KCH1 151845Z 35007KT 12/M02 A3024 RMK A01 T01211016  RH  038%=      5-min Rain = 0
KCH1 151846Z 01005KT 13/M01 A3024 RMK A01 T01251012  RH  039%=      5-min Rain = 0
KCH1 151847Z 35007KT 13/M01 A3024 RMK A01 T01271011  RH  038%=      5-min Rain = 0
KCH1 151848Z 02006KT 13/M01 A3024 RMK A01 T01281010  RH  039%=      5-min Rain = 0
KCH1 151849Z 00006G12KT 13/M01 A3024 RMK A01 T01281010  RH  038%=      5-min Rain = 0
KCH1 151850Z 34009KT 13/M01 A3024 RMK A01 T01281012  RH  038%=      5-min Rain = 0
KCH1 151851Z 33009KT 13/M01 A3024 RMK A01 T01261014  RH  038%=      5-min Rain = 0
KCH1 151852Z 34008KT 12/M02 A3024 RMK A01 T01241019  RH  037%=      5-min Rain = 0
KCH1 151853Z 33005KT 12/M02 A3024 RMK A01 T01221019  RH  037%=      5-min Rain = 0
KCH1 151854Z 35006G11KT 12/M01 A3024 RMK A01 T01241012  RH  039%=      5-min Rain = 0
KCH1 151855Z 35006KT 13/M02 A3024 RMK A01 T01261018  RH  037%=      5-min Rain = 0
KCH1 151856Z 00010KT 13/M01 A3024 RMK A01 T01251014  RH  038%=      5-min Rain = 0
KCH1 151857Z 35010KT 12/M02 A3024 RMK A01 T01241020  RH  037%=      5-min Rain = 0
KCH1 151858Z 34007KT 12/M02 A3024 RMK A01 T01221021  RH  037%=      5-min Rain = 0
KCH1 151859Z 34006KT 12/M02 A3024 RMK A01 T01211017  RH  038%=      5-min Rain = 0
KCH1 151900Z 33008KT 12/M02 A3024 RMK A01 T01231017  RH  038%=      5-min Rain = 0
KCH1 151901Z 33012KT 12/M02 A3023 RMK A01 T01231018  RH  038%=      5-min Rain = 0
KCH1 151902Z 34011KT 12/M02 A3023 RMK A01 T01201020  RH  038%=      5-min Rain = 0
KCH1 151903Z 34010G15KT 12/M02 A3023 RMK A01 T01191021  RH  038%=      5-min Rain = 0
KCH1 151904Z 33010KT 12/M02 A3023 RMK A01 T01191021  RH  038%=      5-min Rain = 0
KCH1 151905Z 32010KT 12/M02 A3023 RMK A01 T01211020  RH  037%=      5-min Rain = 0
KCH1 151906Z 34011KT 12/M02 A3023 RMK A01 T01221016  RH  038%=      5-min Rain = 0
KCH1 151907Z 35009KT 12/M02 A3023 RMK A01 T01231017  RH  038%=      5-min Rain = 0
KCH1 151908Z 35009KT 12/M01 A3023 RMK A01 T01241014  RH  038%=      5-min Rain = 0
KCH1 151909Z 00008KT 13/M02 A3023 RMK A01 T01261018  RH  037%=      5-min Rain = 0
KCH1 151910Z 01007KT 13/M02 A3023 RMK A01 T01261018  RH  037%=      5-min Rain = 0
KCH1 151911Z 36008KT 13/M02 A3023 RMK A01 T01251021  RH  036%=      5-min Rain = 0
KCH1 151912Z 35008KT 12/M03 A3023 RMK A01 T01231025  RH  036%=      5-min Rain = 0
KCH1 151913Z 34006KT 12/M02 A3023 RMK A01 T01221024  RH  036%=      5-min Rain = 0
KCH1 151914Z 01002KT 12/M03 A3023 RMK A01 T01201026  RH  036%=      5-min Rain = 0
KCH1 151915Z 01008G14KT 12/M03 A3023 RMK A01 T01191026  RH  036%=      5-min Rain = 0
KCH1 151916Z 01012KT 12/M02 A3023 RMK A01 T01191020  RH  038%=      5-min Rain = 0
KCH1 151917Z 02010KT 12/M02 A3023 RMK A01 T01201019  RH  038%=      5-min Rain = 0
KCH1 151918Z 01007KT 12/M02 A3023 RMK A01 T01211017  RH  038%=      5-min Rain = 0
KCH1 151919Z 01008KT 12/M02 A3023 RMK A01 T01221017  RH  038%=      5-min Rain = 0
KCH1 151920Z 01007KT 12/M02 A3022 RMK A01 T01231017  RH  038%=      5-min Rain = 0
KCH1 151921Z 02007KT 12/M02 A3022 RMK A01 T01241017  RH  038%=      5-min Rain = 0
KCH1 151922Z 03007KT 13/M02 A3022 RMK A01 T01261023  RH  035%=      5-min Rain = 0
KCH1 151923Z 03005KT 13/M03 A3022 RMK A01 T01261030  RH  034%=      5-min Rain = 0
KCH1 151924Z 36005KT 12/M02 A3022 RMK A01 T01241024  RH  036%=      5-min Rain = 0
KCH1 151925Z 35004KT 13/M01 A3022 RMK A01 T01271013  RH  038%=      5-min Rain = 0
KCH1 151926Z 33003KT 13/M02 A3022 RMK A01 T01301015  RH  037%=      5-min Rain = 0
KCH1 151927Z 34004KT 13/M02 A3022 RMK A01 T01311019  RH  035%=      5-min Rain = 0
KCH1 151928Z 02004KT 13/M03 A3022 RMK A01 T01281025  RH  034%=      5-min Rain = 0
KCH1 151929Z 05006KT 13/M02 A3022 RMK A01 T01271017  RH  037%=      5-min Rain = 0
KCH1 151930Z 02009KT 13/M02 A3022 RMK A01 T01271016  RH  037%=      5-min Rain = 0
KCH1 151931Z 01011KT 13/M01 A3022 RMK A01 T01291014  RH  037%=      5-min Rain = 0
KCH1 151932Z 00012KT 13/M02 A3022 RMK A01 T01281020  RH  036%=      5-min Rain = 0
KCH1 151933Z 35010KT 13/M02 A3022 RMK A01 T01261022  RH  036%=      5-min Rain = 0
KCH1 151934Z 35011KT 13/M02 A3022 RMK A01 T01251022  RH  036%=      5-min Rain = 0
KCH1 151935Z 34008KT 12/M03 A3022 RMK A01 T01231029  RH  034%=      5-min Rain = 0
KCH1 151936Z 00006KT 12/M03 A3022 RMK A01 T01221027  RH  035%=      5-min Rain = 0
KCH1 151937Z 36005KT 12/M03 A3022 RMK A01 T01221027  RH  035%=      5-min Rain = 0
KCH1 151938Z 03006KT 12/M02 A3021 RMK A01 T01221024  RH  036%=      5-min Rain = 0
KCH1 151939Z 01005KT 13/M03 A3021 RMK A01 T01251026  RH  035%=      5-min Rain = 0
KCH1 151940Z 00006KT 13/M03 A3021 RMK A01 T01251027  RH  035%=      5-min Rain = 0
KCH1 151941Z 02007KT 13/M02 A3021 RMK A01 T01271018  RH  037%=      5-min Rain = 0
KCH1 151942Z 35009KT 13/M02 A3021 RMK A01 T01301019  RH  035%=      5-min Rain = 0
KCH1 151943Z 33005KT 13/M02 A3021 RMK A01 T01291021  RH  035%=      5-min Rain = 0
KCH1 151944Z 35009KT 13/M02 A3021 RMK A01 T01291017  RH  036%=      5-min Rain = 0
KCH1 151945Z 35010KT 13/M02 A3021 RMK A01 T01291019  RH  036%=      5-min Rain = 0
KCH1 151946Z 35010KT 13/M02 A3021 RMK A01 T01281021  RH  035%=      5-min Rain = 0
KCH1 151947Z 35009KT 13/M02 A3021 RMK A01 T01281020  RH  036%=      5-min Rain = 0
KCH1 151948Z 35008KT 13/M03 A3021 RMK A01 T01281027  RH  034%=      5-min Rain = 0
KCH1 151949Z 01008KT 13/M02 A3021 RMK A01 T01291022  RH  035%=      5-min Rain = 0
KCH1 151950Z 01008KT 13/M02 A3021 RMK A01 T01301022  RH  035%=      5-min Rain = 0
KCH1 151951Z 02012KT 13/M02 A3021 RMK A01 T01311020  RH  035%=      5-min Rain = 0
KCH1 151952Z 00008KT 13/M02 A3021 RMK A01 T01311023  RH  034%=      5-min Rain = 0
KCH1 151953Z 01007KT 13/M02 A3021 RMK A01 T01291024  RH  034%=      5-min Rain = 0
KCH1 151954Z 01006KT 13/M02 A3021 RMK A01 T01281022  RH  035%=      5-min Rain = 0
KCH1 151955Z 35002KT 13/M02 A3021 RMK A01 T01281023  RH  035%=      5-min Rain = 0
KCH1 151956Z 36005G13KT 13/M02 A3021 RMK A01 T01281022  RH  035%=      5-min Rain = 0
KCH1 151957Z 01008KT 13/M02 A3021 RMK A01 T01291017  RH  036%=      5-min Rain = 0
KCH1 151958Z 36005KT 13/M02 A302 RMK A01 T01291017  RH  036%=      5-min Rain = 0
KCH1 151959Z 35004KT 13/M02 A302 RMK A01 T01291018  RH  036%=      5-min Rain = 0
KCH1 152000Z 35004KT 13/M02 A302 RMK A01 T01301019  RH  036%=      5-min Rain = 0
KCH1 152001Z 34006KT 13/M02 A302 RMK A01 T01301023  RH  035%=      5-min Rain = 0
KCH1 152002Z 36009KT 13/M02 A302 RMK A01 T01301019  RH  035%=      5-min Rain = 0
KCH1 152003Z 00007KT 13/M02 A302 RMK A01 T01331018  RH  035%=      5-min Rain = 0
KCH1 152004Z 01007KT 14/M02 A302 RMK A01 T01351022  RH  034%=      5-min Rain = 0
KCH1 152005Z 02007KT 13/M02 A302 RMK A01 T01331018  RH  035%=      5-min Rain = 0
KCH1 152006Z 01005KT 14/M02 A302 RMK A01 T01351021  RH  034%=      5-min Rain = 0
KCH1 152007Z 34004KT 14/M02 A302 RMK A01 T01351016  RH  035%=      5-min Rain = 0
KCH1 152008Z 33003KT 14/M02 A302 RMK A01 T01371017  RH  035%=      5-min Rain = 0
KCH1 152009Z 36006KT 14/M02 A302 RMK A01 T01351020  RH  034%=      5-min Rain = 0
KCH1 152010Z 00010KT 13/M02 A302 RMK A01 T01321024  RH  034%=      5-min Rain = 0
KCH1 152011Z 35007KT 13/M02 A302 RMK A01 T01291024  RH  034%=      5-min Rain = 0
KCH1 152012Z 36005KT 13/M02 A302 RMK A01 T01281024  RH  035%=      5-min Rain = 0
KCH1 152013Z 36008KT 13/M02 A302 RMK A01 T01281021  RH  035%=      5-min Rain = 0
KCH1 152014Z 36011KT 13/M03 A302 RMK A01 T01281025  RH  034%=      5-min Rain = 0
KCH1 152015Z 35009KT 13/M03 A302 RMK A01 T01261026  RH  035%=      5-min Rain = 0
KCH1 152016Z 01010KT 13/M02 A3019 RMK A01 T01271023  RH  035%=      5-min Rain = 0
KCH1 152017Z 02012KT 13/M03 A3019 RMK A01 T01271025  RH  035%=      5-min Rain = 0
KCH1 152018Z 01007KT 13/M03 A3019 RMK A01 T01281025  RH  034%=      5-min Rain = 0
KCH1 152019Z 02008KT 13/M03 A3019 RMK A01 T01291025  RH  034%=      5-min Rain = 0
KCH1 152020Z 03008KT 13/M03 A3019 RMK A01 T01291029  RH  033%=      5-min Rain = 0
KCH1 152021Z 04005KT 13/M03 A3019 RMK A01 T01271029  RH  034%=      5-min Rain = 0
KCH1 152022Z 03006KT 13/M03 A3019 RMK A01 T01271029  RH  034%=      5-min Rain = 0
KCH1 152023Z 04005KT 13/M03 A3019 RMK A01 T01271028  RH  034%=      5-min Rain = 0
KCH1 152024Z 03005KT 13/M03 A3019 RMK A01 T01271027  RH  034%=      5-min Rain = 0
KCH1 152025Z 01005KT 13/M02 A3019 RMK A01 T01271023  RH  035%=      5-min Rain = 0
KCH1 152026Z 36009KT 13/M02 A3019 RMK A01 T01291020  RH  036%=      5-min Rain = 0
KCH1 152027Z 01008KT 13/M02 A3019 RMK A01 T01301020  RH  035%=      5-min Rain = 0
KCH1 152028Z 01008KT 13/M02 A3019 RMK A01 T01311018  RH  036%=      5-min Rain = 0
KCH1 152029Z 36008KT 13/M02 A3019 RMK A01 T01311016  RH  036%=      5-min Rain = 0
KCH1 152030Z 02008KT 13/M01 A3019 RMK A01 T01311014  RH  037%=      5-min Rain = 0
KCH1 152031Z 02008KT 13/M02 A3019 RMK A01 T01331015  RH  036%=      5-min Rain = 0
KCH1 152032Z 02008KT 13/M02 A3019 RMK A01 T01341015  RH  036%=      5-min Rain = 0
KCH1 152033Z 02007KT 14/M02 A3019 RMK A01 T01351016  RH  035%=      5-min Rain = 0
KCH1 152034Z 04007KT 14/M01 A3019 RMK A01 T01361013  RH  036%=      5-min Rain = 0
KCH1 152035Z 04006KT 14/M02 A3019 RMK A01 T01371017  RH  034%=      5-min Rain = 0
KCH1 152036Z 00004KT 14/M01 A3019 RMK A01 T01371014  RH  035%=      5-min Rain = 0
KCH1 152037Z 01003KT 14/M02 A3019 RMK A01 T01361020  RH  034%=      5-min Rain = 0
KCH1 152038Z 03003KT 14/M02 A3019 RMK A01 T01351023  RH  034%=      5-min Rain = 0
KCH1 152039Z 02006KT 13/M02 A3019 RMK A01 T01331020  RH  035%=      5-min Rain = 0
KCH1 152040Z 04008KT 13/M02 A3019 RMK A01 T01341019  RH  035%=      5-min Rain = 0
KCH1 152041Z 03007KT 13/M02 A3019 RMK A01 T01331022  RH  034%=      5-min Rain = 0
KCH1 152042Z 00009KT 13/M02 A3018 RMK A01 T01331017  RH  035%=      5-min Rain = 0
KCH1 152043Z 35009KT 13/M02 A3018 RMK A01 T01341016  RH  035%=      5-min Rain = 0
KCH1 152044Z 36008KT 13/M02 A3018 RMK A01 T01331019  RH  035%=      5-min Rain = 0
KCH1 152045Z 35006KT 13/M02 A3018 RMK A01 T01311019  RH  035%=      5-min Rain = 0
KCH1 152046Z 33006KT 13/M02 A3018 RMK A01 T01301019  RH  035%=      5-min Rain = 0
KCH1 152047Z 33005KT 13/M02 A3018 RMK A01 T01301017  RH  036%=      5-min Rain = 0
KCH1 152048Z 36005KT 13/M02 A3018 RMK A01 T01301017  RH  036%=      5-min Rain = 0
KCH1 152049Z 34006KT 13/M02 A3018 RMK A01 T01311015  RH  036%=      5-min Rain = 0
KCH1 152050Z 35007KT 13/M01 A3018 RMK A01 T01321013  RH  036%=      5-min Rain = 0
KCH1 152051Z 01009KT 13/M01 A3018 RMK A01 T01331013  RH  036%=      5-min Rain = 0
KCH1 152052Z 02007KT 13/M02 A3018 RMK A01 T01341017  RH  035%=      5-min Rain = 0
KCH1 152053Z 04009KT 14/M02 A3018 RMK A01 T01351016  RH  035%=      5-min Rain = 0
KCH1 152054Z 05006KT 13/M02 A3018 RMK A01 T01331022  RH  034%=      5-min Rain = 0
KCH1 152055Z 04006KT 13/M02 A3018 RMK A01 T01311020  RH  035%=      5-min Rain = 0
KCH1 152056Z 03010KT 13/M02 A3018 RMK A01 T01311019  RH  035%=      5-min Rain = 0
KCH1 152057Z 01009KT 13/M02 A3018 RMK A01 T01331015  RH  036%=      5-min Rain = 0
KCH1 152058Z 36011KT 14/M02 A3018 RMK A01 T01351016  RH  035%=      5-min Rain = 0
KCH1 152059Z 36009KT 13/M02 A3018 RMK A01 T01331016  RH  036%=      5-min Rain = 0
KCH1 152100Z 00009KT 13/M02 A3018 RMK A01 T01321018  RH  035%=      5-min Rain = 0
KCH1 152101Z 03007KT 13/M02 A3018 RMK A01 T01301019  RH  035%=      5-min Rain = 0
KCH1 152102Z 02009KT 13/M02 A3018 RMK A01 T01291018  RH  036%=      5-min Rain = 0
KCH1 152103Z 00009KT 13/M02 A3018 RMK A01 T01301015  RH  037%=      5-min Rain = 0
KCH1 152104Z 02006KT 13/M01 A3018 RMK A01 T01311014  RH  037%=      5-min Rain = 0
KCH1 152105Z 01003KT 13/M02 A3018 RMK A01 T01311018  RH  036%=      5-min Rain = 0
KCH1 152106Z 34004KT 13/M02 A3017 RMK A01 T01301017  RH  036%=      5-min Rain = 0
KCH1 152107Z 35003KT 13/M02 A3017 RMK A01 T01301017  RH  036%=      5-min Rain = 0
KCH1 152108Z 36005KT 13/M01 A3017 RMK A01 T01311010  RH  038%=      5-min Rain = 0
KCH1 152109Z 35011KT 14/M01 A3017 RMK A01 T01351010  RH  037%=      5-min Rain = 0
KCH1 152110Z 36009KT 13/M02 A3017 RMK A01 T01331017  RH  035%=      5-min Rain = 0
KCH1 152111Z 35006KT 13/M02 A3017 RMK A01 T01311019  RH  035%=      5-min Rain = 0
KCH1 152112Z 35003KT 13/M02 A3017 RMK A01 T01291019  RH  036%=      5-min Rain = 0
KCH1 152113Z 32002KT 13/M02 A3017 RMK A01 T01301016  RH  036%=      5-min Rain = 0
KCH1 152114Z 00002KT 13/M02 A3017 RMK A01 T01311017  RH  036%=      5-min Rain = 0
KCH1 152115Z 03004KT 13/M02 A3017 RMK A01 T01321015  RH  036%=      5-min Rain = 0
KCH1 152116Z 04005KT 13/M01 A3017 RMK A01 T01341013  RH  036%=      5-min Rain = 0
KCH1 152117Z 01005KT 14/M01 A3017 RMK A01 T01371006  RH  037%=      5-min Rain = 0
KCH1 152118Z 01012KT 14/M01 A3017 RMK A01 T01411010  RH  035%=      5-min Rain = 0
KCH1 152119Z 35008KT 14/M02 A3017 RMK A01 T01391016  RH  034%=      5-min Rain = 0
KCH1 152120Z 01009KT 14/M01 A3017 RMK A01 T01381014  RH  035%=      5-min Rain = 0
KCH1 152121Z 03005KT 14/M02 A3017 RMK A01 T01371016  RH  035%=      5-min Rain = 0
KCH1 152122Z 03007KT 14/M02 A3017 RMK A01 T01371015  RH  035%=      5-min Rain = 0
KCH1 152123Z 03007KT 14/M01 A3017 RMK A01 T01391011  RH  035%=      5-min Rain = 0
KCH1 152124Z 03008KT 14/M01 A3017 RMK A01 T01411011  RH  035%=      5-min Rain = 0
KCH1 152125Z 36005KT 14/M02 A3017 RMK A01 T01421015  RH  034%=      5-min Rain = 0
KCH1 152126Z 35007KT 14/M02 A3017 RMK A01 T01401019  RH  033%=      5-min Rain = 0
KCH1 152127Z 00007KT 14/M02 A3017 RMK A01 T01361023  RH  033%=      5-min Rain = 0
KCH1 152128Z 36007KT 13/M02 A3017 RMK A01 T01341022  RH  034%=      5-min Rain = 0
KCH1 152129Z 34008KT 13/M02 A3017 RMK A01 T01341024  RH  033%=      5-min Rain = 0
KCH1 152130Z 34006KT 13/M02 A3017 RMK A01 T01331023  RH  034%=      5-min Rain = 0
KCH1 152131Z 00006KT 13/M02 A3017 RMK A01 T01331024  RH  034%=      5-min Rain = 0
KCH1 152132Z 00004KT 13/M03 A3017 RMK A01 T01321025  RH  034%=      5-min Rain = 0
KCH1 152133Z 04006KT 13/M02 A3017 RMK A01 T01321019  RH  035%=      5-min Rain = 0
KCH1 152134Z 03006KT 13/M02 A3017 RMK A01 T01341020  RH  034%=      5-min Rain = 0
KCH1 152135Z 02008G14KT 13/M02 A3017 RMK A01 T01341020  RH  034%=      5-min Rain = 0
KCH1 152136Z 00009KT 13/M02 A3017 RMK A01 T01341017  RH  035%=      5-min Rain = 0
KCH1 152137Z 35009KT 14/M02 A3017 RMK A01 T01351018  RH  035%=      5-min Rain = 0
KCH1 152138Z 01007KT 13/M02 A3017 RMK A01 T01341019  RH  035%=      5-min Rain = 0
KCH1 152139Z 01004KT 13/M02 A3017 RMK A01 T01331016  RH  035%=      5-min Rain = 0
KCH1 152140Z 35004KT 13/M01 A3017 RMK A01 T01341012  RH  037%=      5-min Rain = 0
KCH1 152141Z 02006KT 14/M01 A3017 RMK A01 T01381007  RH  037%=      5-min Rain = 0
KCH1 152142Z 04008KT 14/M01 A3017 RMK A01 T01401013  RH  035%=      5-min Rain = 0
KCH1 152143Z 04009KT 14/M02 A3017 RMK A01 T01371017  RH  035%=      5-min Rain = 0
KCH1 152144Z 03007KT 14/M02 A3017 RMK A01 T01351017  RH  035%=      5-min Rain = 0
KCH1 152145Z 03008KT 13/M02 A3017 RMK A01 T01341018  RH  035%=      5-min Rain = 0
KCH1 152146Z 03007KT 13/M02 A3016 RMK A01 T01331015  RH  036%=      5-min Rain = 0
KCH1 152147Z 34007KT 14/M01 A3017 RMK A01 T01351010  RH  037%=      5-min Rain = 0
KCH1 152148Z 35007KT 14/M01 A3017 RMK A01 T01371013  RH  035%=      5-min Rain = 0
KCH1 152149Z 03007KT 14/M01 A3017 RMK A01 T01361011  RH  036%=      5-min Rain = 0
KCH1 152150Z 02009KT 14/M01 A3016 RMK A01 T01371011  RH  036%=      5-min Rain = 0
KCH1 152151Z 01007KT 14/M01 A3016 RMK A01 T01381013  RH  035%=      5-min Rain = 0
KCH1 152152Z 01009KT 14/M01 A3017 RMK A01 T01381011  RH  036%=      5-min Rain = 0
KCH1 152153Z 02008KT 14/M02 A3017 RMK A01 T01391018  RH  034%=      5-min Rain = 0
KCH1 152154Z 03007KT 14/M02 A3017 RMK A01 T01371021  RH  033%=      5-min Rain = 0
KCH1 152155Z 03006KT 14/M02 A3017 RMK A01 T01361017  RH  035%=      5-min Rain = 0
KCH1 152156Z 02006KT 14/M02 A3017 RMK A01 T01351019  RH  034%=      5-min Rain = 0
KCH1 152157Z 36007KT 14/M02 A3017 RMK A01 T01351015  RH  035%=      5-min Rain = 0
KCH1 152158Z 35006KT 14/M01 A3017 RMK A01 T01361012  RH  036%=      5-min Rain = 0
KCH1 152159Z 01007KT 14/M01 A3017 RMK A01 T01371012  RH  036%=      5-min Rain = 0
KCH1 152200Z 02006KT 14/M01 A3017 RMK A01 T01371013  RH  035%=      5-min Rain = 0
KCH1 152201Z 35007KT 14/M01 A3017 RMK A01 T01371011  RH  036%=      5-min Rain = 0
KCH1 152202Z 32005KT 14/M02 A3017 RMK A01 T01381016  RH  035%=      5-min Rain = 0
KCH1 152203Z 30004KT 14/M02 A3017 RMK A01 T01361015  RH  035%=      5-min Rain = 0
KCH1 152204Z 32004KT 14/M01 A3017 RMK A01 T01371013  RH  036%=      5-min Rain = 0
KCH1 152205Z 34005KT 14/M02 A3016 RMK A01 T01371016  RH  035%=      5-min Rain = 0
KCH1 152206Z 36008KT 14/M02 A3016 RMK A01 T01371015  RH  035%=      5-min Rain = 0
KCH1 152207Z 35008KT 14/M02 A3016 RMK A01 T01371016  RH  035%=      5-min Rain = 0
KCH1 152208Z 01007KT 14/M01 A3016 RMK A01 T01361014  RH  035%=      5-min Rain = 0
KCH1 152209Z 01007KT 14/M01 A3016 RMK A01 T01371011  RH  036%=      5-min Rain = 0
KCH1 152210Z 01008KT 14/M02 A3017 RMK A01 T01381017  RH  034%=      5-min Rain = 0
KCH1 152211Z 01006KT 14/M02 A3017 RMK A01 T01361020  RH  034%=      5-min Rain = 0
KCH1 152212Z 01004KT 13/M02 A3016 RMK A01 T01341021  RH  034%=      5-min Rain = 0
KCH1 152213Z 01006KT 13/M02 A3016 RMK A01 T01341017  RH  035%=      5-min Rain = 0
KCH1 152214Z 00008KT 13/M02 A3016 RMK A01 T01341017  RH  035%=      5-min Rain = 0
KCH1 152215Z 35011KT 14/M02 A3016 RMK A01 T01351015  RH  035%=      5-min Rain = 0
KCH1 152216Z 00011KT 14/M02 A3016 RMK A01 T01351017  RH  035%=      5-min Rain = 0
KCH1 152217Z 01007KT 13/M02 A3017 RMK A01 T01341019  RH  035%=      5-min Rain = 0
KCH1 152218Z 35006KT 13/M02 A3017 RMK A01 T01331017  RH  035%=      5-min Rain = 0
KCH1 152219Z 00005KT 13/M02 A3017 RMK A01 T01341022  RH  034%=      5-min Rain = 0
KCH1 152220Z 35007KT 14/M01 A3017 RMK A01 T01351014  RH  036%=      5-min Rain = 0
KCH1 152221Z 36007KT 14/M02 A3017 RMK A01 T01361020  RH  034%=      5-min Rain = 0
KCH1 152222Z 01005KT 13/M02 A3017 RMK A01 T01341017  RH  035%=      5-min Rain = 0
KCH1 152223Z 03006G11KT 14/M01 A3016 RMK A01 T01361013  RH  036%=      5-min Rain = 0
KCH1 152224Z 02008KT 14/M02 A3016 RMK A01 T01361015  RH  035%=      5-min Rain = 0
KCH1 152225Z 36009KT 14/M01 A3016 RMK A01 T01361012  RH  036%=      5-min Rain = 0
KCH1 152226Z 00008KT 14/M01 A3017 RMK A01 T01361014  RH  035%=      5-min Rain = 0
KCH1 152227Z 01006KT 14/M01 A3017 RMK A01 T01351014  RH  036%=      5-min Rain = 0
KCH1 152228Z 36005KT 13/M02 A3016 RMK A01 T01341016  RH  035%=      5-min Rain = 0
KCH1 152229Z 35004KT 13/M02 A3016 RMK A01 T01321016  RH  036%=      5-min Rain = 0
KCH1 152230Z 00004KT 13/M01 A3016 RMK A01 T01331010  RH  037%=      5-min Rain = 0
KCH1 152231Z 02008KT 14/M01 A3016 RMK A01 T01351011  RH  037%=      5-min Rain = 0
KCH1 152232Z 02005KT 14/M01 A3016 RMK A01 T01351013  RH  036%=      5-min Rain = 0
KCH1 152233Z 02004KT 13/M01 A3016 RMK A01 T01341011  RH  037%=      5-min Rain = 0
KCH1 152234Z 02004KT 13/M01 A3016 RMK A01 T01341013  RH  036%=      5-min Rain = 0
KCH1 152235Z 01004KT 13/M01 A3016 RMK A01 T01341013  RH  036%=      5-min Rain = 0
KCH1 152236Z 35003KT 14/M01 A3016 RMK A01 T01351010  RH  037%=      5-min Rain = 0
KCH1 152237Z 34005KT 14/M01 A3016 RMK A01 T01361009  RH  037%=      5-min Rain = 0
KCH1 152238Z 35008KT 14/M01 A3016 RMK A01 T01361011  RH  036%=      5-min Rain = 0
KCH1 152239Z 01009KT 14/M01 A3016 RMK A01 T01361013  RH  036%=      5-min Rain = 0
KCH1 152240Z 02007KT 14/M02 A3016 RMK A01 T01351015  RH  035%=      5-min Rain = 0
KCH1 152241Z 02005KT 13/M02 A3016 RMK A01 T01341017  RH  035%=      5-min Rain = 0
KCH1 152242Z 36004KT 13/M02 A3016 RMK A01 T01331017  RH  035%=      5-min Rain = 0
KCH1 152243Z 34004KT 13/M02 A3016 RMK A01 T01331015  RH  036%=      5-min Rain = 0
KCH1 152244Z 34008KT 13/M02 A3016 RMK A01 T01341015  RH  036%=      5-min Rain = 0
KCH1 152245Z 36005KT 14/M02 A3016 RMK A01 T01351018  RH  035%=      5-min Rain = 0
KCH1 152246Z 35005KT 13/M02 A3016 RMK A01 T01341017  RH  035%=      5-min Rain = 0
KCH1 152247Z 35006KT 14/M02 A3016 RMK A01 T01351018  RH  035%=      5-min Rain = 0
KCH1 152248Z 01004KT 13/M02 A3016 RMK A01 T01341018  RH  035%=      5-min Rain = 0
KCH1 152249Z 36004KT 13/M02 A3016 RMK A01 T01341018  RH  035%=      5-min Rain = 0
KCH1 152250Z 34007KT 13/M02 A3016 RMK A01 T01341022  RH  034%=      5-min Rain = 0
KCH1 152251Z 34007KT 13/M02 A3016 RMK A01 T01331021  RH  034%=      5-min Rain = 0
KCH1 152252Z 34006KT 13/M02 A3016 RMK A01 T01331017  RH  035%=      5-min Rain = 0
KCH1 152253Z 34005KT 13/M02 A3016 RMK A01 T01331016  RH  035%=      5-min Rain = 0
KCH1 152254Z 32005KT 13/M02 A3017 RMK A01 T01341019  RH  035%=      5-min Rain = 0
KCH1 152255Z 31007KT 13/M03 A3016 RMK A01 T01341026  RH  033%=      5-min Rain = 0
KCH1 152256Z 32006KT 13/M03 A3017 RMK A01 T01331030  RH  032%=      5-min Rain = 0
KCH1 152257Z 30008KT 13/M03 A3016 RMK A01 T01311028  RH  033%=      5-min Rain = 0
KCH1 152258Z 31009KT 13/M03 A3016 RMK A01 T01311027  RH  033%=      5-min Rain = 0
KCH1 152259Z 31005KT 13/M02 A3017 RMK A01 T01311024  RH  034%=      5-min Rain = 0
KCH1 152300Z 31005KT 13/M02 A3017 RMK A01 T01311018  RH  035%=      5-min Rain = 0
KCH1 152301Z 35004KT 13/M01 A3017 RMK A01 T01341014  RH  036%=      5-min Rain = 0
KCH1 152302Z 35003KT 14/M02 A3017 RMK A01 T01351017  RH  035%=      5-min Rain = 0
KCH1 152303Z 35005KT 13/M02 A3016 RMK A01 T01341019  RH  035%=      5-min Rain = 0
KCH1 152304Z 36006KT 13/M02 A3016 RMK A01 T01321018  RH  035%=      5-min Rain = 0
KCH1 152305Z 35005KT 13/M02 A3016 RMK A01 T01311018  RH  036%=      5-min Rain = 0
KCH1 152306Z 34005KT 13/M02 A3016 RMK A01 T01301016  RH  036%=      5-min Rain = 0
KCH1 152307Z 35005KT 13/M02 A3016 RMK A01 T01311016  RH  036%=      5-min Rain = 0
KCH1 152308Z 34004KT 13/M03 A3016 RMK A01 T01321029  RH  033%=      5-min Rain = 0
KCH1 152309Z 32006KT 13/M03 A3016 RMK A01 T01311027  RH  033%=      5-min Rain = 0
KCH1 152310Z 32005KT 13/M03 A3016 RMK A01 T01311028  RH  033%=      5-min Rain = 0
KCH1 152311Z 35007KT 13/M02 A3016 RMK A01 T01311021  RH  035%=      5-min Rain = 0
KCH1 152312Z 35007KT 13/M02 A3016 RMK A01 T01321016  RH  036%=      5-min Rain = 0
KCH1 152313Z 00008KT 13/M02 A3016 RMK A01 T01321020  RH  035%=      5-min Rain = 0
KCH1 152314Z 35007KT 13/M03 A3016 RMK A01 T01311027  RH  033%=      5-min Rain = 0
KCH1 152315Z 34009KT 13/M03 A3016 RMK A01 T01291027  RH  034%=      5-min Rain = 0
KCH1 152316Z 34009KT 13/M03 A3016 RMK A01 T01291028  RH  034%=      5-min Rain = 0
KCH1 152317Z 34007KT 13/M03 A3016 RMK A01 T01291029  RH  033%=      5-min Rain = 0
KCH1 152318Z 34005KT 13/M03 A3016 RMK A01 T01291029  RH  033%=      5-min Rain = 0
KCH1 152319Z 34006KT 13/M03 A3016 RMK A01 T01291028  RH  034%=      5-min Rain = 0
KCH1 152320Z 34004KT 13/M04 A3016 RMK A01 T01291035  RH  032%=      5-min Rain = 0
KCH1 152321Z 34004KT 13/M03 A3016 RMK A01 T01291032  RH  032%=      5-min Rain = 0
KCH1 152322Z 34002KT 13/M03 A3016 RMK A01 T01291032  RH  032%=      5-min Rain = 0
KCH1 152323Z 32005KT 13/M03 A3016 RMK A01 T01301027  RH  033%=      5-min Rain = 0
KCH1 152324Z 32006KT 13/M03 A3016 RMK A01 T01301032  RH  032%=      5-min Rain = 0
KCH1 152325Z 34005KT 13/M03 A3016 RMK A01 T01301029  RH  033%=      5-min Rain = 0
KCH1 152326Z 30007KT 13/M03 A3016 RMK A01 T01301028  RH  033%=      5-min Rain = 0
KCH1 152327Z 31007KT 13/M03 A3016 RMK A01 T01301031  RH  033%=      5-min Rain = 0
KCH1 152328Z 33007KT 13/M03 A3016 RMK A01 T01301028  RH  033%=      5-min Rain = 0
KCH1 152329Z 36005KT 13/M03 A3016 RMK A01 T01291029  RH  033%=      5-min Rain = 0
KCH1 152330Z 34006KT 13/M03 A3016 RMK A01 T01281028  RH  034%=      5-min Rain = 0
KCH1 152331Z 00005KT 13/M03 A3016 RMK A01 T01281026  RH  034%=      5-min Rain = 0
KCH1 152332Z 36007KT 13/M03 A3016 RMK A01 T01281026  RH  034%=      5-min Rain = 0
KCH1 152333Z 34007KT 13/M03 A3016 RMK A01 T01281028  RH  034%=      5-min Rain = 0
KCH1 152334Z 35007KT 13/M03 A3016 RMK A01 T01271029  RH  034%=      5-min Rain = 0
KCH1 152335Z 35005KT 13/M03 A3016 RMK A01 T01271029  RH  034%=      5-min Rain = 0
KCH1 152336Z 34006KT 13/M03 A3016 RMK A01 T01261028  RH  034%=      5-min Rain = 0
KCH1 152337Z 33005KT 13/M03 A3016 RMK A01 T01261030  RH  033%=      5-min Rain = 0
KCH1 152338Z 34005KT 13/M03 A3016 RMK A01 T01261032  RH  033%=      5-min Rain = 0
KCH1 152339Z 35004KT 13/M03 A3016 RMK A01 T01261032  RH  033%=      5-min Rain = 0
KCH1 152340Z 34007KT 13/M03 A3016 RMK A01 T01261030  RH  034%=      5-min Rain = 0
KCH1 152341Z 33007KT 13/M03 A3016 RMK A01 T01261029  RH  034%=      5-min Rain = 0
KCH1 152342Z 34006KT 13/M03 A3016 RMK A01 T01251028  RH  034%=      5-min Rain = 0
KCH1 152343Z 35005KT 13/M03 A3016 RMK A01 T01251029  RH  034%=      5-min Rain = 0
KCH1 152344Z 36004KT 13/M03 A3016 RMK A01 T01251028  RH  034%=      5-min Rain = 0
KCH1 152345Z 36005KT 12/M03 A3016 RMK A01 T01241028  RH  035%=      5-min Rain = 0
KCH1 152346Z 35006KT 12/M03 A3016 RMK A01 T01241030  RH  034%=      5-min Rain = 0
KCH1 152347Z 35005KT 12/M03 A3016 RMK A01 T01231030  RH  034%=      5-min Rain = 0
KCH1 152348Z 36006KT 12/M03 A3016 RMK A01 T01231028  RH  035%=      5-min Rain = 0
KCH1 152349Z 00007KT 12/M03 A3016 RMK A01 T01221030  RH  034%=      5-min Rain = 0
KCH1 152350Z 36004KT 12/M03 A3016 RMK A01 T01221033  RH  034%=      5-min Rain = 0
KCH1 152351Z 36005KT 12/M03 A3016 RMK A01 T01211031  RH  035%=      5-min Rain = 0
KCH1 152352Z 36005KT 12/M03 A3016 RMK A01 T01211033  RH  034%=      5-min Rain = 0
KCH1 152353Z 01005KT 12/M03 A3016 RMK A01 T01211030  RH  035%=      5-min Rain = 0
KCH1 152354Z 00005KT 12/M03 A3016 RMK A01 T01201033  RH  034%=      5-min Rain = 0
KCH1 152355Z 01005KT 12/M03 A3016 RMK A01 T01201031  RH  035%=      5-min Rain = 0
KCH1 152356Z 00005KT 12/M03 A3015 RMK A01 T01191030  RH  035%=      5-min Rain = 0
KCH1 152357Z 00005KT 12/M03 A3015 RMK A01 T01191030  RH  035%=      5-min Rain = 0
KCH1 152358Z 01005KT 12/M03 A3015 RMK A01 T01191031  RH  035%=      5-min Rain = 0
KCH1 152359Z 01004KT 12/M03 A3015 RMK A01 T01191027  RH  036%=      5-min Rain = 0
KCH1 160000Z 36005KT 12/M03 A3015 RMK A01 T01181028  RH  036%=      5-min Rain = 0
KCH1 160001Z 36004KT 12/M03 A3015 RMK A01 T01181027  RH  036%=      5-min Rain = 0
KCH1 160002Z 36004KT 12/M03 A3015 RMK A01 T01171025  RH  037%=      5-min Rain = 0
KCH1 160003Z 00005KT 12/M02 A3015 RMK A01 T01161024  RH  037%=      5-min Rain = 0
KCH1 160004Z 01004KT 12/M02 A3015 RMK A01 T01161024  RH  038%=      5-min Rain = 0
KCH1 160005Z 02005KT 12/M02 A3015 RMK A01 T01151023  RH  038%=      5-min Rain = 0
KCH1 160006Z 01005KT 11/M03 A3015 RMK A01 T01141025  RH  038%=      5-min Rain = 0
KCH1 160007Z 00005KT 11/M02 A3015 RMK A01 T01141024  RH  038%=      5-min Rain = 0
KCH1 160008Z 00005KT 11/M02 A3015 RMK A01 T01131023  RH  038%=      5-min Rain = 0
KCH1 160009Z 01004KT 11/M02 A3015 RMK A01 T01131021  RH  039%=      5-min Rain = 0
KCH1 160010Z 01004KT 11/M02 A3015 RMK A01 T01121021  RH  039%=      5-min Rain = 0
KCH1 160011Z 00004KT 11/M02 A3015 RMK A01 T01111019  RH  040%=      5-min Rain = 0
KCH1 160012Z 01005KT 11/M02 A3015 RMK A01 T01101018  RH  041%=      5-min Rain = 0
KCH1 160013Z 01004KT 11/M02 A3015 RMK A01 T01101019  RH  041%=      5-min Rain = 0
KCH1 160014Z 01004KT 11/M02 A3015 RMK A01 T01091019  RH  041%=      5-min Rain = 0
KCH1 160015Z 00004KT 11/M02 A3015 RMK A01 T01091018  RH  041%=      5-min Rain = 0
KCH1 160016Z 36004KT 11/M02 A3015 RMK A01 T01091018  RH  041%=      5-min Rain = 0
KCH1 160017Z 00004KT 11/M02 A3015 RMK A01 T01081018  RH  042%=      5-min Rain = 0
KCH1 160018Z 00004KT 11/M02 A3015 RMK A01 T01071016  RH  042%=      5-min Rain = 0
KCH1 160019Z 01004KT 11/M02 A3015 RMK A01 T01061015  RH  043%=      5-min Rain = 0
KCH1 160020Z 00005KT 11/M02 A3015 RMK A01 T01051015  RH  043%=      5-min Rain = 0
KCH1 160021Z 01005KT 10/M02 A3015 RMK A01 T01041015  RH  043%=      5-min Rain = 0
KCH1 160022Z 01005KT 10/M02 A3015 RMK A01 T01041015  RH  044%=      5-min Rain = 0
KCH1 160023Z 00004KT 10/M01 A3015 RMK A01 T01031014  RH  044%=      5-min Rain = 0
KCH1 160024Z 00005KT 10/M01 A3015 RMK A01 T01031014  RH  044%=      5-min Rain = 0
KCH1 160025Z 01004KT 10/M01 A3015 RMK A01 T01021014  RH  045%=      5-min Rain = 0
KCH1 160026Z 00004KT 10/M01 A3015 RMK A01 T01011014  RH  045%=      5-min Rain = 0
KCH1 160027Z 01004KT 10/M01 A3015 RMK A01 T01011013  RH  045%=      5-min Rain = 0
KCH1 160028Z 01004KT 10/M01 A3015 RMK A01 T01001013  RH  045%=      5-min Rain = 0
KCH1 160029Z 01004KT 10/M01 A3015 RMK A01 T01001014  RH  045%=      5-min Rain = 0
KCH1 160030Z 01004KT 10/M01 A3015 RMK A01 T01001013  RH  046%=      5-min Rain = 0
KCH1 160031Z 01004KT 10/M01 A3015 RMK A01 T00991012  RH  046%=      5-min Rain = 0
KCH1 160032Z 01004KT 10/M01 A3015 RMK A01 T00991013  RH  046%=      5-min Rain = 0
KCH1 160033Z 01004KT 10/M01 A3015 RMK A01 T00981013  RH  046%=      5-min Rain = 0
KCH1 160034Z 01003KT 10/M01 A3015 RMK A01 T00971013  RH  046%=      5-min Rain = 0
KCH1 160035Z 01003KT 10/M01 A3015 RMK A01 T00971013  RH  046%=      5-min Rain = 0
KCH1 160036Z 01003KT 10/M01 A3015 RMK A01 T00971013  RH  046%=      5-min Rain = 0
KCH1 160037Z 01003KT 10/M01 A3015 RMK A01 T00971014  RH  046%=      5-min Rain = 0
KCH1 160038Z 02003KT 10/M01 A3015 RMK A01 T00961014  RH  046%=      5-min Rain = 0
KCH1 160039Z 02003KT 10/M01 A3015 RMK A01 T00971014  RH  046%=      5-min Rain = 0
KCH1 160040Z 02003KT 10/M01 A3015 RMK A01 T00961014  RH  046%=      5-min Rain = 0
KCH1 160041Z 02004KT 10/M02 A3016 RMK A01 T00971015  RH  046%=      5-min Rain = 0
KCH1 160042Z 02004KT 10/M02 A3016 RMK A01 T00971015  RH  046%=      5-min Rain = 0
KCH1 160043Z 02004KT 10/M01 A3016 RMK A01 T00961014  RH  046%=      5-min Rain = 0
KCH1 160044Z 02004KT 10/M02 A3016 RMK A01 T00961015  RH  046%=      5-min Rain = 0
KCH1 160045Z 02004KT 10/M02 A3016 RMK A01 T00961015  RH  046%=      5-min Rain = 0
KCH1 160046Z 02004KT 10/M02 A3016 RMK A01 T00961015  RH  046%=      5-min Rain = 0
KCH1 160047Z 02004KT 10/M02 A3016 RMK A01 T00951015  RH  046%=      5-min Rain = 0
KCH1 160048Z 02005KT 10/M02 A3016 RMK A01 T00951015  RH  046%=      5-min Rain = 0
KCH1 160049Z 02005KT 10/M02 A3016 RMK A01 T00951015  RH  046%=      5-min Rain = 0
KCH1 160050Z 02005KT 10/M02 A3016 RMK A01 T00951016  RH  046%=      5-min Rain = 0
KCH1 160051Z 02004KT 10/M02 A3016 RMK A01 T00951015  RH  046%=      5-min Rain = 0
KCH1 160052Z 02005KT 09/M02 A3016 RMK A01 T00941015  RH  046%=      5-min Rain = 0
KCH1 160053Z 02005KT 09/M02 A3016 RMK A01 T00931016  RH  046%=      5-min Rain = 0
KCH1 160054Z 02005KT 09/M02 A3016 RMK A01 T00931015  RH  047%=      5-min Rain = 0
KCH1 160055Z 02005KT 09/M02 A3016 RMK A01 T00931016  RH  047%=      5-min Rain = 0
KCH1 160056Z 02005KT 09/M02 A3016 RMK A01 T00921016  RH  047%=      5-min Rain = 0
KCH1 160057Z 02005KT 09/M02 A3016 RMK A01 T00921016  RH  047%=      5-min Rain = 0
KCH1 160058Z 02005KT 09/M02 A3016 RMK A01 T00921016  RH  047%=      5-min Rain = 0
KCH1 160059Z 02005KT 09/M02 A3016 RMK A01 T00911016  RH  047%=      5-min Rain = 0
KCH1 160100Z 02005KT 09/M02 A3016 RMK A01 T00911015  RH  047%=      5-min Rain = 0
KCH1 160101Z 02005KT 09/M02 A3016 RMK A01 T00911016  RH  047%=      5-min Rain = 0
KCH1 160102Z 02005KT 09/M02 A3016 RMK A01 T00901016  RH  047%=      5-min Rain = 0
KCH1 160103Z 01004KT 09/M02 A3016 RMK A01 T00901016  RH  048%=      5-min Rain = 0
KCH1 160104Z 01004KT 09/M02 A3016 RMK A01 T00891016  RH  048%=      5-min Rain = 0
KCH1 160105Z 01004KT 09/M02 A3016 RMK A01 T00891016  RH  048%=      5-min Rain = 0
KCH1 160106Z 01004KT 09/M02 A3016 RMK A01 T00891016  RH  048%=      5-min Rain = 0
KCH1 160107Z 02004KT 09/M02 A3016 RMK A01 T00881016  RH  048%=      5-min Rain = 0
KCH1 160108Z 02004KT 09/M02 A3016 RMK A01 T00881016  RH  048%=      5-min Rain = 0
KCH1 160109Z 02004KT 09/M02 A3016 RMK A01 T00871015  RH  049%=      5-min Rain = 0
KCH1 160110Z 02003KT 09/M01 A3016 RMK A01 T00851012  RH  050%=      5-min Rain = 0
KCH1 160111Z 02003KT 08/M01 A3016 RMK A01 T00821010  RH  052%=      5-min Rain = 0
KCH1 160112Z 02003KT 08/M01 A3016 RMK A01 T00781006  RH  056%=      5-min Rain = 0
KCH1 160113Z 03003KT 07/M00 A3016 RMK A01 T00741004  RH  058%=      5-min Rain = 0
KCH1 160114Z 03003KT 07/M00 A3016 RMK A01 T00711003  RH  060%=      5-min Rain = 0
KCH1 160115Z 03003KT 07/M00 A3016 RMK A01 T00691002  RH  060%=      5-min Rain = 0
KCH1 160116Z 04003KT 07/M00 A3016 RMK A01 T00681003  RH  060%=      5-min Rain = 0
KCH1 160117Z 04003KT 07/M00 A3016 RMK A01 T00681004  RH  060%=      5-min Rain = 0
KCH1 160118Z 05003KT 07/M01 A3016 RMK A01 T00681005  RH  060%=      5-min Rain = 0
KCH1 160119Z 05002KT 07/M00 A3016 RMK A01 T00681004  RH  060%=      5-min Rain = 0
KCH1 160120Z 05002KT 07/M01 A3016 RMK A01 T00681007  RH  059%=      5-min Rain = 0
KCH1 160121Z 05002KT 07/M01 A3016 RMK A01 T00681010  RH  057%=      5-min Rain = 0
KCH1 160122Z 06002KT 07/M01 A3016 RMK A01 T00701010  RH  057%=      5-min Rain = 0
KCH1 160123Z 06001KT 07/M01 A3016 RMK A01 T00711010  RH  056%=      5-min Rain = 0
KCH1 160124Z 07001KT 07/M01 A3016 RMK A01 T00721012  RH  055%=      5-min Rain = 0
KCH1 160125Z 07001KT 07/M01 A3016 RMK A01 T00731012  RH  055%=      5-min Rain = 0
KCH1 160126Z 07001KT 07/M01 A3016 RMK A01 T00731013  RH  054%=      5-min Rain = 0
KCH1 160127Z 08001KT 07/M01 A3016 RMK A01 T00741013  RH  054%=      5-min Rain = 0
KCH1 160128Z 08001KT 08/M01 A3016 RMK A01 T00751013  RH  054%=      5-min Rain = 0
KCH1 160129Z 08001KT 08/M01 A3016 RMK A01 T00751013  RH  054%=      5-min Rain = 0
KCH1 160130Z 07001KT 08/M01 A3017 RMK A01 T00751013  RH  054%=      5-min Rain = 0
KCH1 160131Z 07001KT 08/M01 A3017 RMK A01 T00751013  RH  053%=      5-min Rain = 0
KCH1 160132Z 07001KT 08/M01 A3017 RMK A01 T00751013  RH  053%=      5-min Rain = 0
KCH1 160133Z 07001KT 08/M01 A3017 RMK A01 T00751013  RH  053%=      5-min Rain = 0
KCH1 160134Z 07001KT 08/M01 A3017 RMK A01 T00751013  RH  054%=      5-min Rain = 0
KCH1 160135Z 08000KT 07/M01 A3017 RMK A01 T00741013  RH  054%=      5-min Rain = 0
KCH1 160136Z 08001KT 07/M01 A3017 RMK A01 T00731012  RH  055%=      5-min Rain = 0
KCH1 160137Z 09000KT 07/M01 A3017 RMK A01 T00731011  RH  055%=      5-min Rain = 0
KCH1 160138Z 09000KT 07/M01 A3017 RMK A01 T00711010  RH  056%=      5-min Rain = 0
KCH1 160139Z 11000KT 07/M00 A3017 RMK A01 T00701002  RH  060%=      5-min Rain = 0
KCH1 160140Z 11000KT 07/00 A3017 RMK A01 T00680000  RH  062%=      5-min Rain = 0
KCH1 160141Z 00000KT 07/M00 A3017 RMK A01 T00661002  RH  062%=      5-min Rain = 0
KCH1 160142Z 00000KT 07/M00 A3017 RMK A01 T00651002  RH  062%=      5-min Rain = 0
KCH1 160143Z 00000KT 06/M00 A3017 RMK A01 T00641004  RH  062%=      5-min Rain = 0
KCH1 160144Z 00000KT 06/M01 A3017 RMK A01 T00641005  RH  061%=      5-min Rain = 0
KCH1 160145Z 11000KT 06/M01 A3017 RMK A01 T00641006  RH  061%=      5-min Rain = 0
KCH1 160146Z 11001KT 07/M01 A3017 RMK A01 T00651006  RH  061%=      5-min Rain = 0
KCH1 160147Z 11001KT 07/M01 A3017 RMK A01 T00661007  RH  060%=      5-min Rain = 0
KCH1 160148Z 15000KT 07/M01 A3017 RMK A01 T00661007  RH  060%=      5-min Rain = 0
KCH1 160149Z 17000KT 07/M01 A3017 RMK A01 T00671007  RH  060%=      5-min Rain = 0
KCH1 160150Z 17001KT 07/M01 A3017 RMK A01 T00671007  RH  060%=      5-min Rain = 0
KCH1 160151Z 17001KT 07/M01 A3017 RMK A01 T00661007  RH  060%=      5-min Rain = 0
KCH1 160152Z 15001KT 07/M01 A3017 RMK A01 T00661007  RH  060%=      5-min Rain = 0
KCH1 160153Z 14001KT 07/M01 A3017 RMK A01 T00651007  RH  060%=      5-min Rain = 0
KCH1 160154Z 14001KT 07/M01 A3017 RMK A01 T00651006  RH  060%=      5-min Rain = 0
KCH1 160155Z 13000KT 06/M01 A3017 RMK A01 T00641006  RH  061%=      5-min Rain = 0
KCH1 160156Z 12000KT 06/M01 A3017 RMK A01 T00631007  RH  061%=      5-min Rain = 0
KCH1 160157Z 06000KT 06/M01 A3017 RMK A01 T00631006  RH  061%=      5-min Rain = 0
KCH1 160158Z 06001KT 06/M01 A3017 RMK A01 T00621006  RH  061%=      5-min Rain = 0
KCH1 160159Z 06001KT 06/M01 A3017 RMK A01 T00621006  RH  062%=      5-min Rain = 0
KCH1 160200Z 06001KT 06/M01 A3017 RMK A01 T00621006  RH  062%=      5-min Rain = 0
KCH1 160201Z 06001KT 06/M01 A3017 RMK A01 T00621007  RH  062%=      5-min Rain = 0
KCH1 160202Z 05001KT 06/M01 A3017 RMK A01 T00621007  RH  061%=      5-min Rain = 0
KCH1 160203Z 04001KT 06/M01 A3017 RMK A01 T00621007  RH  061%=      5-min Rain = 0
KCH1 160204Z 04001KT 06/M01 A3017 RMK A01 T00641008  RH  060%=      5-min Rain = 0
KCH1 160205Z 04000KT 06/M01 A3017 RMK A01 T00641007  RH  060%=      5-min Rain = 0
KCH1 160206Z 00000KT 06/M01 A3017 RMK A01 T00641007  RH  060%=      5-min Rain = 0
KCH1 160207Z 00000KT 06/M01 A3017 RMK A01 T00641005  RH  061%=      5-min Rain = 0
KCH1 160208Z 00000KT 06/M01 A3017 RMK A01 T00641005  RH  061%=      5-min Rain = 0
KCH1 160209Z 00000KT 06/M01 A3017 RMK A01 T00631006  RH  061%=      5-min Rain = 0
KCH1 160210Z 03000KT 06/M01 A3017 RMK A01 T00631006  RH  061%=      5-min Rain = 0
KCH1 160211Z 00000KT 06/M01 A3017 RMK A01 T00631006  RH  061%=      5-min Rain = 0
KCH1 160212Z 00000KT 06/M01 A3017 RMK A01 T00631006  RH  061%=      5-min Rain = 0
KCH1 160213Z 01001KT 06/M01 A3017 RMK A01 T00631005  RH  062%=      5-min Rain = 0
KCH1 160214Z 00001KT 06/M01 A3017 RMK A01 T00631006  RH  061%=      5-min Rain = 0
KCH1 160215Z 35001KT 06/M01 A3017 RMK A01 T00641006  RH  061%=      5-min Rain = 0
KCH1 160216Z 35001KT 07/M01 A3017 RMK A01 T00651007  RH  060%=      5-min Rain = 0
KCH1 160217Z 36000KT 07/M01 A3017 RMK A01 T00661006  RH  060%=      5-min Rain = 0
KCH1 160218Z 02000KT 07/M01 A3017 RMK A01 T00661008  RH  059%=      5-min Rain = 0
KCH1 160219Z 03001KT 07/M01 A3017 RMK A01 T00671009  RH  058%=      5-min Rain = 0
KCH1 160220Z 01000KT 07/M01 A3017 RMK A01 T00671008  RH  059%=      5-min Rain = 0
KCH1 160221Z 00000KT 07/M01 A3017 RMK A01 T00661007  RH  059%=      5-min Rain = 0
KCH1 160222Z 00000KT 07/M01 A3017 RMK A01 T00651008  RH  059%=      5-min Rain = 0
KCH1 160223Z 00000KT 07/M01 A3017 RMK A01 T00651009  RH  059%=      5-min Rain = 0
KCH1 160224Z 00000KT 07/M01 A3017 RMK A01 T00651007  RH  060%=      5-min Rain = 0
KCH1 160225Z 00000KT 06/M00 A3017 RMK A01 T00631003  RH  063%=      5-min Rain = 0
KCH1 160226Z 00000KT 06/M01 A3017 RMK A01 T00611005  RH  063%=      5-min Rain = 0
KCH1 160227Z 00000KT 06/M00 A3017 RMK A01 T00601004  RH  064%=      5-min Rain = 0
KCH1 160228Z 00000KT 06/M00 A3018 RMK A01 T00591003  RH  065%=      5-min Rain = 0
KCH1 160229Z 00000KT 06/M00 A3018 RMK A01 T00571003  RH  065%=      5-min Rain = 0
KCH1 160230Z 00000KT 06/M00 A3018 RMK A01 T00551004  RH  066%=      5-min Rain = 0
KCH1 160231Z 00000KT 05/M01 A3018 RMK A01 T00531005  RH  067%=      5-min Rain = 0
KCH1 160232Z 00000KT 05/M01 A3018 RMK A01 T00511005  RH  067%=      5-min Rain = 0
KCH1 160233Z 00000KT 05/M01 A3018 RMK A01 T00491006  RH  068%=      5-min Rain = 0
KCH1 160234Z 00000KT 05/M01 A3018 RMK A01 T00481005  RH  068%=      5-min Rain = 0
KCH1 160235Z 00000KT 05/M01 A3017 RMK A01 T00481005  RH  068%=      5-min Rain = 0
KCH1 160236Z 00000KT 05/M00 A3017 RMK A01 T00481004  RH  069%=      5-min Rain = 0
KCH1 160237Z 00000KT 05/M00 A3017 RMK A01 T00481004  RH  069%=      5-min Rain = 0
KCH1 160238Z 00000KT 05/M01 A3018 RMK A01 T00501006  RH  067%=      5-min Rain = 0
KCH1 160239Z 00000KT 05/M00 A3018 RMK A01 T00501004  RH  068%=      5-min Rain = 0
KCH1 160240Z 00000KT 05/M00 A3018 RMK A01 T00511004  RH  068%=      5-min Rain = 0
KCH1 160241Z 00000KT 05/M00 A3018 RMK A01 T00531004  RH  067%=      5-min Rain = 0
KCH1 160242Z 00000KT 05/M00 A3018 RMK A01 T00541004  RH  066%=      5-min Rain = 0
KCH1 160243Z 00000KT 06/M00 A3018 RMK A01 T00551004  RH  065%=      5-min Rain = 0
KCH1 160244Z 00000KT 06/M01 A3018 RMK A01 T00551005  RH  065%=      5-min Rain = 0
KCH1 160245Z 00000KT 05/M00 A3018 RMK A01 T00541004  RH  066%=      5-min Rain = 0
KCH1 160246Z 00000KT 05/M00 A3018 RMK A01 T00471004  RH  070%=      5-min Rain = 0
KCH1 160247Z 00000KT 05/M01 A3018 RMK A01 T00451006  RH  069%=      5-min Rain = 0
KCH1 160248Z 00000KT 05/M01 A3018 RMK A01 T00451006  RH  069%=      5-min Rain = 0
KCH1 160249Z 00000KT 05/M01 A3018 RMK A01 T00471005  RH  069%=      5-min Rain = 0
KCH1 160250Z 01000KT 05/M01 A3018 RMK A01 T00491005  RH  068%=      5-min Rain = 0
KCH1 160251Z 01001KT 05/M01 A3018 RMK A01 T00501007  RH  067%=      5-min Rain = 0
KCH1 160252Z 01001KT 05/M01 A3018 RMK A01 T00511008  RH  066%=      5-min Rain = 0
KCH1 160253Z 01001KT 05/M01 A3018 RMK A01 T00541007  RH  065%=      5-min Rain = 0
KCH1 160254Z 00001KT 06/M01 A3018 RMK A01 T00561007  RH  064%=      5-min Rain = 0
KCH1 160255Z 35001KT 06/M01 A3018 RMK A01 T00581007  RH  063%=      5-min Rain = 0
KCH1 160256Z 35001KT 06/M01 A3018 RMK A01 T00591006  RH  063%=      5-min Rain = 0
KCH1 160257Z 36001KT 05/M00 A3018 RMK A01 T00541004  RH  066%=      5-min Rain = 0
KCH1 160258Z 00001KT 05/M00 A3018 RMK A01 T00461004  RH  070%=      5-min Rain = 0
KCH1 160259Z 00001KT 04/M00 A3018 RMK A01 T00401004  RH  073%=      5-min Rain = 0
KCH1 160300Z 00001KT 04/M00 A3018 RMK A01 T00351003  RH  076%=      5-min Rain = 0
KCH1 160301Z 00000KT 03/M00 A3018 RMK A01 T00331003  RH  077%=      5-min Rain = 0
KCH1 160302Z 00000KT 03/M00 A3018 RMK A01 T00321003  RH  078%=      5-min Rain = 0
KCH1 160303Z 00000KT 03/M00 A3018 RMK A01 T00311003  RH  078%=      5-min Rain = 0
KCH1 160304Z 00000KT 03/M00 A3018 RMK A01 T00311003  RH  079%=      5-min Rain = 0
KCH1 160305Z 00000KT 03/M00 A3018 RMK A01 T00311004  RH  078%=      5-min Rain = 0
KCH1 160306Z 00000KT 03/M00 A3018 RMK A01 T00301004  RH  078%=      5-min Rain = 0
KCH1 160307Z 00000KT 03/M00 A3018 RMK A01 T00301004  RH  078%=      5-min Rain = 0
KCH1 160308Z 00000KT 03/M00 A3018 RMK A01 T00301003  RH  079%=      5-min Rain = 0
KCH1 160309Z 00000KT 03/M00 A3018 RMK A01 T00301004  RH  078%=      5-min Rain = 0
KCH1 160310Z 00000KT 03/M00 A3018 RMK A01 T00301004  RH  078%=      5-min Rain = 0
KCH1 160311Z 00000KT 03/M00 A3018 RMK A01 T00301003  RH  079%=      5-min Rain = 0
KCH1 160312Z 00000KT 03/M00 A3018 RMK A01 T00301003  RH  078%=      5-min Rain = 0
KCH1 160313Z 00000KT 03/M00 A3018 RMK A01 T00301004  RH  078%=      5-min Rain = 0
KCH1 160314Z 00000KT 03/M00 A3018 RMK A01 T00311003  RH  078%=      5-min Rain = 0
KCH1 160315Z 00000KT 03/M00 A3018 RMK A01 T00321004  RH  078%=      5-min Rain = 0
KCH1 160316Z 00000KT 03/M00 A3018 RMK A01 T00331004  RH  077%=      5-min Rain = 0
KCH1 160317Z 27000KT 03/M00 A3018 RMK A01 T00331003  RH  077%=      5-min Rain = 0
KCH1 160318Z 27000KT 03/M00 A3018 RMK A01 T00331002  RH  077%=      5-min Rain = 0
KCH1 160319Z 00000KT 04/M00 A3018 RMK A01 T00351004  RH  075%=      5-min Rain = 0
KCH1 160320Z 00000KT 04/M01 A3018 RMK A01 T00371005  RH  074%=      5-min Rain = 0
KCH1 160321Z 00000KT 04/M01 A3018 RMK A01 T00391006  RH  072%=      5-min Rain = 0
KCH1 160322Z 00000KT 04/M01 A3018 RMK A01 T00411006  RH  072%=      5-min Rain = 0
KCH1 160323Z 00000KT 04/M01 A3018 RMK A01 T00411006  RH  071%=      5-min Rain = 0
KCH1 160324Z 00000KT 04/M01 A3018 RMK A01 T00411005  RH  072%=      5-min Rain = 0
KCH1 160325Z 00000KT 04/M00 A3018 RMK A01 T00401004  RH  073%=      5-min Rain = 0
KCH1 160326Z 00000KT 04/M00 A3018 RMK A01 T00391004  RH  074%=      5-min Rain = 0
KCH1 160327Z 00000KT 04/M00 A3018 RMK A01 T00381004  RH  074%=      5-min Rain = 0
KCH1 160328Z 00000KT 04/M00 A3018 RMK A01 T00371003  RH  075%=      5-min Rain = 0
KCH1 160329Z 00000KT 04/M00 A3018 RMK A01 T00351003  RH  076%=      5-min Rain = 0
KCH1 160330Z 00000KT 03/M00 A3018 RMK A01 T00341003  RH  077%=      5-min Rain = 0
KCH1 160331Z 00000KT 03/M00 A3018 RMK A01 T00331002  RH  078%=      5-min Rain = 0
KCH1 160332Z 07000KT 03/M00 A3018 RMK A01 T00321003  RH  078%=      5-min Rain = 0
KCH1 160333Z 08002KT 03/M00 A3018 RMK A01 T00311003  RH  078%=      5-min Rain = 0
KCH1 160334Z 07001KT 03/M00 A3018 RMK A01 T00271004  RH  080%=      5-min Rain = 0
KCH1 160335Z 35001KT 02/M00 A3018 RMK A01 T00241003  RH  082%=      5-min Rain = 0
KCH1 160336Z 34001KT 02/M00 A3018 RMK A01 T00221003  RH  083%=      5-min Rain = 0
KCH1 160337Z 35001KT 02/M00 A3018 RMK A01 T00221003  RH  084%=      5-min Rain = 0
KCH1 160338Z 36001KT 02/M00 A3018 RMK A01 T00211003  RH  084%=      5-min Rain = 0
KCH1 160339Z 01002KT 02/M00 A3018 RMK A01 T00211003  RH  084%=      5-min Rain = 0
KCH1 160340Z 01002KT 02/M00 A3018 RMK A01 T00201003  RH  085%=      5-min Rain = 0
KCH1 160341Z 36002KT 02/M00 A3018 RMK A01 T00201003  RH  085%=      5-min Rain = 0
KCH1 160342Z 00001KT 02/M00 A3018 RMK A01 T00191003  RH  085%=      5-min Rain = 0
KCH1 160343Z 35002KT 02/M00 A3018 RMK A01 T00181002  RH  086%=      5-min Rain = 0
KCH1 160344Z 35002KT 02/00 A3018 RMK A01 T00200001  RH  087%=      5-min Rain = 0
KCH1 160345Z 34002KT 02/00 A3018 RMK A01 T00220003  RH  087%=      5-min Rain = 0
KCH1 160346Z 33002KT 02/00 A3018 RMK A01 T00240004  RH  086%=      5-min Rain = 0
KCH1 160347Z 32002KT 03/01 A3017 RMK A01 T00260006  RH  086%=      5-min Rain = 0
KCH1 160348Z 31003KT 03/01 A3017 RMK A01 T00290010  RH  087%=      5-min Rain = 0
KCH1 160349Z 31003KT 03/01 A3017 RMK A01 T00320012  RH  087%=      5-min Rain = 0
KCH1 160350Z 30003KT 03/01 A3017 RMK A01 T00330010  RH  085%=      5-min Rain = 0
KCH1 160351Z 29003KT 03/01 A3017 RMK A01 T00330009  RH  084%=      5-min Rain = 0
KCH1 160352Z 28003KT 03/01 A3017 RMK A01 T00330008  RH  084%=      5-min Rain = 0
KCH1 160353Z 27002KT 03/01 A3017 RMK A01 T00320006  RH  083%=      5-min Rain = 0
KCH1 160354Z 28002KT 03/00 A3017 RMK A01 T00300004  RH  083%=      5-min Rain = 0
KCH1 160355Z 27002KT 03/00 A3018 RMK A01 T00290003  RH  083%=      5-min Rain = 0
KCH1 160356Z 27002KT 03/00 A3018 RMK A01 T00270003  RH  085%=      5-min Rain = 0
KCH1 160357Z 27002KT 03/00 A3018 RMK A01 T00260004  RH  086%=      5-min Rain = 0
KCH1 160358Z 27002KT 03/01 A3018 RMK A01 T00250005  RH  087%=      5-min Rain = 0
KCH1 160359Z 28002KT 02/01 A3018 RMK A01 T00240005  RH  087%=      5-min Rain = 0
KCH1 160400Z 28002KT 02/00 A3018 RMK A01 T00230004  RH  088%=      5-min Rain = 0
KCH1 160401Z 28002KT 02/01 A3018 RMK A01 T00220005  RH  088%=      5-min Rain = 0
KCH1 160402Z 28002KT 02/01 A3018 RMK A01 T00220005  RH  089%=      5-min Rain = 0
KCH1 160403Z 28002KT 02/00 A3018 RMK A01 T00200004  RH  089%=      5-min Rain = 0
KCH1 160404Z 29002KT 02/00 A3018 RMK A01 T00200003  RH  089%=      5-min Rain = 0
KCH1 160405Z 30002KT 02/00 A3018 RMK A01 T00200004  RH  089%=      5-min Rain = 0
KCH1 160406Z 30002KT 02/00 A3018 RMK A01 T00200004  RH  089%=      5-min Rain = 0
KCH1 160407Z 30003KT 02/01 A3018 RMK A01 T00200006  RH  090%=      5-min Rain = 0
KCH1 160408Z 31002KT 02/01 A3018 RMK A01 T00220007  RH  090%=      5-min Rain = 0
KCH1 160409Z 31002KT 02/01 A3018 RMK A01 T00220007  RH  090%=      5-min Rain = 0
KCH1 160410Z 31001KT 02/01 A3018 RMK A01 T00220007  RH  090%=      5-min Rain = 0
KCH1 160411Z 32002KT 02/01 A3018 RMK A01 T00220006  RH  089%=      5-min Rain = 0
KCH1 160412Z 32002KT 02/01 A3018 RMK A01 T00220006  RH  089%=      5-min Rain = 0
KCH1 160413Z 32002KT 02/00 A3018 RMK A01 T00210004  RH  088%=      5-min Rain = 0
KCH1 160414Z 32002KT 02/00 A3018 RMK A01 T00200002  RH  088%=      5-min Rain = 0
KCH1 160415Z 32002KT 02/00 A3018 RMK A01 T00200002  RH  088%=      5-min Rain = 0
KCH1 160416Z 31002KT 02/00 A3017 RMK A01 T00190001  RH  088%=      5-min Rain = 0
KCH1 160417Z 31002KT 02/00 A3017 RMK A01 T00180000  RH  088%=      5-min Rain = 0
KCH1 160418Z 31003KT 02/00 A3017 RMK A01 T00180001  RH  088%=      5-min Rain = 0
KCH1 160419Z 31003KT 02/00 A3017 RMK A01 T00170001  RH  089%=      5-min Rain = 0
KCH1 160420Z 31003KT 02/00 A3017 RMK A01 T00170000  RH  089%=      5-min Rain = 0
KCH1 160421Z 31003KT 02/00 A3017 RMK A01 T00180002  RH  089%=      5-min Rain = 0
KCH1 160422Z 31003KT 02/01 A3017 RMK A01 T00200005  RH  090%=      5-min Rain = 0
KCH1 160423Z 31002KT 02/01 A3017 RMK A01 T00210008  RH  091%=      5-min Rain = 0
KCH1 160424Z 31002KT 02/01 A3017 RMK A01 T00220009  RH  091%=      5-min Rain = 0
KCH1 160425Z 30002KT 02/01 A3017 RMK A01 T00230010  RH  091%=      5-min Rain = 0
KCH1 160426Z 30002KT 02/01 A3017 RMK A01 T00230010  RH  091%=      5-min Rain = 0
KCH1 160427Z 30003KT 02/01 A3017 RMK A01 T00230011  RH  092%=      5-min Rain = 0
KCH1 160428Z 29003KT 02/01 A3017 RMK A01 T00240012  RH  092%=      5-min Rain = 0
KCH1 160429Z 29003KT 02/01 A3017 RMK A01 T00240011  RH  091%=      5-min Rain = 0
KCH1 160430Z 29003KT 02/01 A3017 RMK A01 T00240010  RH  091%=      5-min Rain = 0
KCH1 160431Z 29003KT 02/01 A3017 RMK A01 T00240010  RH  091%=      5-min Rain = 0
KCH1 160432Z 29003KT 02/01 A3017 RMK A01 T00240010  RH  091%=      5-min Rain = 0
KCH1 160433Z 29003KT 02/01 A3017 RMK A01 T00240010  RH  091%=      5-min Rain = 0
KCH1 160434Z 30003KT 02/01 A3017 RMK A01 T00240011  RH  091%=      5-min Rain = 0
KCH1 160435Z 30003KT 02/01 A3017 RMK A01 T00240012  RH  092%=      5-min Rain = 0
KCH1 160436Z 31002KT 02/01 A3017 RMK A01 T00240013  RH  092%=      5-min Rain = 0
KCH1 160437Z 31002KT 02/01 A3017 RMK A01 T00240013  RH  092%=      5-min Rain = 0
KCH1 160438Z 32002KT 02/01 A3017 RMK A01 T00240012  RH  092%=      5-min Rain = 0
KCH1 160439Z 32002KT 02/01 A3017 RMK A01 T00240011  RH  091%=      5-min Rain = 0
KCH1 160440Z 33002KT 02/01 A3017 RMK A01 T00210006  RH  089%=      5-min Rain = 0
KCH1 160441Z 34002KT 02/M00 A3017 RMK A01 T00171003  RH  087%=      5-min Rain = 0
KCH1 160442Z 34002KT 01/M01 A3017 RMK A01 T00131006  RH  087%=      5-min Rain = 0
KCH1 160443Z 36002KT 01/M01 A3017 RMK A01 T00111007  RH  088%=      5-min Rain = 0
KCH1 160444Z 01002KT 01/M01 A3017 RMK A01 T00091007  RH  089%=      5-min Rain = 0
KCH1 160445Z 02002KT 01/M01 A3017 RMK A01 T00091006  RH  090%=      5-min Rain = 0
KCH1 160446Z 03002KT 01/M01 A3017 RMK A01 T00081006  RH  090%=      5-min Rain = 0
KCH1 160447Z 03002KT 01/M01 A3017 RMK A01 T00071006  RH  091%=      5-min Rain = 0
KCH1 160448Z 03002KT 01/M01 A3017 RMK A01 T00071006  RH  091%=      5-min Rain = 0
KCH1 160449Z 02002KT 01/M01 A3017 RMK A01 T00061007  RH  091%=      5-min Rain = 0
KCH1 160450Z 01003KT 01/M01 A3017 RMK A01 T00061006  RH  092%=      5-min Rain = 0
KCH1 160451Z 00003KT 01/M01 A3017 RMK A01 T00051007  RH  092%=      5-min Rain = 0
KCH1 160452Z 00003KT 01/M01 A3017 RMK A01 T00051006  RH  092%=      5-min Rain = 0
KCH1 160453Z 36003KT 01/M00 A3017 RMK A01 T00061004  RH  093%=      5-min Rain = 0
KCH1 160454Z 36003KT 01/M00 A3017 RMK A01 T00081002  RH  093%=      5-min Rain = 0
KCH1 160455Z 35003KT 01/M00 A3017 RMK A01 T00091002  RH  093%=      5-min Rain = 0
KCH1 160456Z 36003KT 01/M00 A3017 RMK A01 T00101001  RH  093%=      5-min Rain = 0
KCH1 160457Z 35003KT 01/00 A3017 RMK A01 T001100-0  RH  092%=      5-min Rain = 0
KCH1 160458Z 36003KT 01/00 A3017 RMK A01 T00120001  RH  092%=      5-min Rain = 0
KCH1 160459Z 35003KT 01/00 A3017 RMK A01 T00130001  RH  092%=      5-min Rain = 0
KCH1 160500Z 35003KT 01/00 A3017 RMK A01 T00140001  RH  091%=      5-min Rain = 0
KCH1 160501Z 35002KT 02/00 A3017 RMK A01 T00150002  RH  091%=      5-min Rain = 0
KCH1 160502Z 35003KT 02/00 A3017 RMK A01 T00170003  RH  091%=      5-min Rain = 0
KCH1 160503Z 34003KT 02/00 A3017 RMK A01 T00180004  RH  090%=      5-min Rain = 0
KCH1 160504Z 34003KT 02/00 A3017 RMK A01 T00200004  RH  089%=      5-min Rain = 0
KCH1 160505Z 33003KT 02/01 A3017 RMK A01 T00220005  RH  089%=      5-min Rain = 0
KCH1 160506Z 33003KT 02/01 A3017 RMK A01 T00240006  RH  088%=      5-min Rain = 0
KCH1 160507Z 33003KT 03/00 A3017 RMK A01 T00250004  RH  086%=      5-min Rain = 0
KCH1 160508Z 32002KT 03/00 A3017 RMK A01 T00250003  RH  086%=      5-min Rain = 0
KCH1 160509Z 32002KT 03/00 A3017 RMK A01 T00250003  RH  085%=      5-min Rain = 0
KCH1 160510Z 31002KT 03/00 A3017 RMK A01 T00250002  RH  085%=      5-min Rain = 0
KCH1 160511Z 30002KT 03/00 A3016 RMK A01 T00250002  RH  085%=      5-min Rain = 0
KCH1 160512Z 30003KT 03/00 A3016 RMK A01 T00250001  RH  085%=      5-min Rain = 0
KCH1 160513Z 30002KT 02/00 A3016 RMK A01 T00240001  RH  085%=      5-min Rain = 0
KCH1 160514Z 30003KT 02/00 A3016 RMK A01 T00240002  RH  085%=      5-min Rain = 0
KCH1 160515Z 30003KT 02/00 A3016 RMK A01 T00240002  RH  086%=      5-min Rain = 0
KCH1 160516Z 30002KT 02/00 A3016 RMK A01 T00240003  RH  086%=      5-min Rain = 0
KCH1 160517Z 30002KT 02/00 A3016 RMK A01 T00240003  RH  086%=      5-min Rain = 0
KCH1 160518Z 29002KT 02/00 A3016 RMK A01 T00240002  RH  085%=      5-min Rain = 0
KCH1 160519Z 28002KT 02/00 A3016 RMK A01 T00240001  RH  085%=      5-min Rain = 0
KCH1 160520Z 29002KT 02/00 A3016 RMK A01 T00230001  RH  085%=      5-min Rain = 0
KCH1 160521Z 28003KT 02/00 A3016 RMK A01 T00230002  RH  086%=      5-min Rain = 0
KCH1 160522Z 29003KT 02/00 A3016 RMK A01 T00230003  RH  086%=      5-min Rain = 0
KCH1 160523Z 29003KT 02/01 A3016 RMK A01 T00230005  RH  087%=      5-min Rain = 0
KCH1 160524Z 30003KT 02/01 A3016 RMK A01 T00230007  RH  089%=      5-min Rain = 0
KCH1 160525Z 31003KT 02/01 A3016 RMK A01 T00230008  RH  090%=      5-min Rain = 0
KCH1 160526Z 31003KT 02/01 A3016 RMK A01 T00230009  RH  090%=      5-min Rain = 0
KCH1 160527Z 31002KT 02/01 A3016 RMK A01 T00240009  RH  090%=      5-min Rain = 0
KCH1 160528Z 31002KT 02/01 A3016 RMK A01 T00230008  RH  090%=      5-min Rain = 0
KCH1 160529Z 30002KT 02/01 A3016 RMK A01 T00220006  RH  089%=      5-min Rain = 0
KCH1 160530Z 31002KT 02/00 A3016 RMK A01 T00210003  RH  088%=      5-min Rain = 0
KCH1 160531Z 30002KT 02/M00 A3016 RMK A01 T00191001  RH  086%=      5-min Rain = 0
KCH1 160532Z 30002KT 02/M00 A3016 RMK A01 T00171004  RH  086%=      5-min Rain = 0
KCH1 160533Z 30002KT 02/M00 A3016 RMK A01 T00161004  RH  086%=      5-min Rain = 0
KCH1 160534Z 30002KT 02/M00 A3016 RMK A01 T00161004  RH  087%=      5-min Rain = 0
KCH1 160535Z 30003KT 02/M00 A3016 RMK A01 T00161003  RH  087%=      5-min Rain = 0
KCH1 160536Z 30003KT 02/M00 A3016 RMK A01 T00151002  RH  088%=      5-min Rain = 0
KCH1 160537Z 30003KT 02/M00 A3016 RMK A01 T00151001  RH  089%=      5-min Rain = 0
KCH1 160538Z 30003KT 02/00 A3016 RMK A01 T00150000  RH  090%=      5-min Rain = 0
KCH1 160539Z 29003KT 02/00 A3016 RMK A01 T00150001  RH  090%=      5-min Rain = 0
KCH1 160540Z 29003KT 02/00 A3016 RMK A01 T00150001  RH  091%=      5-min Rain = 0
KCH1 160541Z 28003KT 02/00 A3016 RMK A01 T00150003  RH  091%=      5-min Rain = 0
KCH1 160542Z 28003KT 02/00 A3016 RMK A01 T00150004  RH  092%=      5-min Rain = 0
KCH1 160543Z 28003KT 02/01 A3016 RMK A01 T00170007  RH  094%=      5-min Rain = 0
KCH1 160544Z 27003KT 02/01 A3016 RMK A01 T00180009  RH  094%=      5-min Rain = 0
KCH1 160545Z 27003KT 02/01 A3016 RMK A01 T00190010  RH  094%=      5-min Rain = 0
KCH1 160546Z 27003KT 02/01 A3016 RMK A01 T00190011  RH  094%=      5-min Rain = 0
KCH1 160547Z 27003KT 02/01 A3016 RMK A01 T00180010  RH  094%=      5-min Rain = 0
KCH1 160548Z 27003KT 02/01 A3016 RMK A01 T00180009  RH  094%=      5-min Rain = 0
KCH1 160549Z 27003KT 02/01 A3016 RMK A01 T00170008  RH  094%=      5-min Rain = 0
KCH1 160550Z 28003KT 02/01 A3016 RMK A01 T00170008  RH  094%=      5-min Rain = 0
KCH1 160551Z 28003KT 02/01 A3016 RMK A01 T00170008  RH  094%=      5-min Rain = 0
KCH1 160552Z 28003KT 02/01 A3016 RMK A01 T00170009  RH  094%=      5-min Rain = 0
KCH1 160553Z 28003KT 02/01 A3016 RMK A01 T00160008  RH  095%=      5-min Rain = 0
KCH1 160554Z 28003KT 02/01 A3016 RMK A01 T00160008  RH  095%=      5-min Rain = 0
KCH1 160555Z 28003KT 02/01 A3016 RMK A01 T00160009  RH  095%=      5-min Rain = 0
KCH1 160556Z 28003KT 02/01 A3016 RMK A01 T00160009  RH  095%=      5-min Rain = 0
KCH1 160557Z 28003KT 02/01 A3016 RMK A01 T00160009  RH  095%=      5-min Rain = 0
KCH1 160558Z 29003KT 02/01 A3016 RMK A01 T00150008  RH  095%=      5-min Rain = 0
KCH1 160559Z 29003KT 02/01 A3016 RMK A01 T00150007  RH  095%=      5-min Rain = 0

Page generated in 0.1776 seconds.